﻿<?xml version="1.0" encoding="utf-8"?><gpx creator="Garmin Desktop App" version="1.1" xsi:schemaLocation="http://www.topografix.com/GPX/1/1 http://www.topografix.com/GPX/1/1/gpx.xsd http://www.garmin.com/xmlschemas/WaypointExtension/v1 http://www8.garmin.com/xmlschemas/WaypointExtensionv1.xsd http://www.garmin.com/xmlschemas/TrackPointExtension/v1 http://www.garmin.com/xmlschemas/TrackPointExtensionv1.xsd http://www.garmin.com/xmlschemas/GpxExtensions/v3 http://www8.garmin.com/xmlschemas/GpxExtensionsv3.xsd http://www.garmin.com/xmlschemas/ActivityExtension/v1 http://www8.garmin.com/xmlschemas/ActivityExtensionv1.xsd http://www.garmin.com/xmlschemas/AdventuresExtensions/v1 http://www8.garmin.com/xmlschemas/AdventuresExtensionv1.xsd http://www.garmin.com/xmlschemas/PressureExtension/v1 http://www.garmin.com/xmlschemas/PressureExtensionv1.xsd http://www.garmin.com/xmlschemas/TripExtensions/v1 http://www.garmin.com/xmlschemas/TripExtensionsv1.xsd http://www.garmin.com/xmlschemas/TripMetaDataExtensions/v1 http://www.garmin.com/xmlschemas/TripMetaDataExtensionsv1.xsd http://www.garmin.com/xmlschemas/ViaPointTransportationModeExtensions/v1 http://www.garmin.com/xmlschemas/ViaPointTransportationModeExtensionsv1.xsd http://www.garmin.com/xmlschemas/CreationTimeExtension/v1 http://www.garmin.com/xmlschemas/CreationTimeExtensionsv1.xsd http://www.garmin.com/xmlschemas/AccelerationExtension/v1 http://www.garmin.com/xmlschemas/AccelerationExtensionv1.xsd http://www.garmin.com/xmlschemas/PowerExtension/v1 http://www.garmin.com/xmlschemas/PowerExtensionv1.xsd http://www.garmin.com/xmlschemas/VideoExtension/v1 http://www.garmin.com/xmlschemas/VideoExtensionv1.xsd" xmlns="http://www.topografix.com/GPX/1/1" xmlns:xsi="http://www.w3.org/2001/XMLSchema-instance" xmlns:wptx1="http://www.garmin.com/xmlschemas/WaypointExtension/v1" xmlns:gpxtrx="http://www.garmin.com/xmlschemas/GpxExtensions/v3" xmlns:gpxtpx="http://www.garmin.com/xmlschemas/TrackPointExtension/v1" xmlns:gpxx="http://www.garmin.com/xmlschemas/GpxExtensions/v3" xmlns:trp="http://www.garmin.com/xmlschemas/TripExtensions/v1" xmlns:adv="http://www.garmin.com/xmlschemas/AdventuresExtensions/v1" xmlns:prs="http://www.garmin.com/xmlschemas/PressureExtension/v1" xmlns:tmd="http://www.garmin.com/xmlschemas/TripMetaDataExtensions/v1" xmlns:vptm="http://www.garmin.com/xmlschemas/ViaPointTransportationModeExtensions/v1" xmlns:ctx="http://www.garmin.com/xmlschemas/CreationTimeExtension/v1" xmlns:gpxacc="http://www.garmin.com/xmlschemas/AccelerationExtension/v1" xmlns:gpxpx="http://www.garmin.com/xmlschemas/PowerExtension/v1" xmlns:vidx1="http://www.garmin.com/xmlschemas/VideoExtension/v1">

  <metadata>
    <link href="http://www.garmin.com">
      <text>Garmin International</text>
    </link>
    <time>2019-11-16T11:44:42Z</time>
    <bounds maxlat="51.167664108797908" maxlon="6.160791032016277" minlat="51.148614222183824" minlon="6.078209672123194" />
  </metadata>

  <trk>
    <name>meinweg 15 kmm via venhof en boshut</name>
    <extensions>
      <gpxx:TrackExtension>
        <gpxx:DisplayColor>Red</gpxx:DisplayColor>
      </gpxx:TrackExtension>
    </extensions>
    <trkseg>
      <trkpt lat="51.151109514757991" lon="6.157029401510954">
        <ele>33.789999999999999</ele>
        <time>2019-11-10T09:22:17Z</time>
      </trkpt>
      <trkpt lat="51.151215797290206" lon="6.157688889652491">
        <ele>33.700000000000003</ele>
        <time>2019-11-10T09:22:49Z</time>
      </trkpt>
      <trkpt lat="51.151233650743961" lon="6.157749909907579">
        <ele>36.100000000000001</ele>
        <time>2019-11-10T09:22:53Z</time>
      </trkpt>
      <trkpt lat="51.151267848908901" lon="6.157954344525933">
        <ele>36.810000000000002</ele>
        <time>2019-11-10T09:23:03Z</time>
      </trkpt>
      <trkpt lat="51.151386955752969" lon="6.158271431922913">
        <ele>36.759999999999998</ele>
        <time>2019-11-10T09:23:19Z</time>
      </trkpt>
      <trkpt lat="51.151507822796702" lon="6.158443763852119">
        <ele>36.689999999999998</ele>
        <time>2019-11-10T09:23:32Z</time>
      </trkpt>
      <trkpt lat="51.151629276573658" lon="6.158606456592679">
        <ele>36.630000000000003</ele>
        <time>2019-11-10T09:23:46Z</time>
      </trkpt>
      <trkpt lat="51.151712676510215" lon="6.158699914813042">
        <ele>36.590000000000003</ele>
        <time>2019-11-10T09:23:53Z</time>
      </trkpt>
      <trkpt lat="51.151786437258124" lon="6.158854812383652">
        <ele>36.560000000000002</ele>
        <time>2019-11-10T09:24:01Z</time>
      </trkpt>
      <trkpt lat="51.151896826922894" lon="6.159084811806679">
        <ele>37.359999999999999</ele>
        <time>2019-11-10T09:24:13Z</time>
      </trkpt>
      <trkpt lat="51.152012329548597" lon="6.159394942224026">
        <ele>38.100000000000001</ele>
        <time>2019-11-10T09:24:30Z</time>
      </trkpt>
      <trkpt lat="51.15205499343574" lon="6.159566519781947">
        <ele>38.090000000000003</ele>
        <time>2019-11-10T09:24:39Z</time>
      </trkpt>
      <trkpt lat="51.152092712000012" lon="6.159872710704804">
        <ele>38.07</ele>
        <time>2019-11-10T09:24:53Z</time>
      </trkpt>
      <trkpt lat="51.152181392535567" lon="6.160075552761555">
        <ele>38.07</ele>
        <time>2019-11-10T09:25:06Z</time>
      </trkpt>
      <trkpt lat="51.152200838550925" lon="6.160127017647028">
        <ele>35.719999999999999</ele>
        <time>2019-11-10T09:25:09Z</time>
      </trkpt>
      <trkpt lat="51.152344504371285" lon="6.160389957949519">
        <ele>35.670000000000002</ele>
        <time>2019-11-10T09:25:27Z</time>
      </trkpt>
      <trkpt lat="51.152484817430377" lon="6.160701345652342">
        <ele>35.57</ele>
        <time>2019-11-10T09:25:45Z</time>
      </trkpt>
      <trkpt lat="51.152502754703164" lon="6.160768568515778">
        <ele>35.549999999999997</ele>
        <time>2019-11-10T09:25:48Z</time>
      </trkpt>
      <trkpt lat="51.152571151033044" lon="6.160791032016277">
        <ele>35.409999999999997</ele>
        <time>2019-11-10T09:26:08Z</time>
      </trkpt>
      <trkpt lat="51.152656730264425" lon="6.160585340112448">
        <ele>35.270000000000003</ele>
        <time>2019-11-10T09:26:26Z</time>
      </trkpt>
      <trkpt lat="51.152783548459411" lon="6.160314353182912">
        <ele>35.109999999999999</ele>
        <time>2019-11-10T09:26:44Z</time>
      </trkpt>
      <trkpt lat="51.152864601463079" lon="6.159970192238689">
        <ele>34.890000000000001</ele>
        <time>2019-11-10T09:27:04Z</time>
      </trkpt>
      <trkpt lat="51.152891088277102" lon="6.159567022696137">
        <ele>34.630000000000003</ele>
        <time>2019-11-10T09:27:26Z</time>
      </trkpt>
      <trkpt lat="51.152909612283111" lon="6.159214144572616">
        <ele>34.399999999999999</ele>
        <time>2019-11-10T09:27:43Z</time>
      </trkpt>
      <trkpt lat="51.152882454916835" lon="6.15900962613523">
        <ele>34.32</ele>
        <time>2019-11-10T09:27:48Z</time>
      </trkpt>
      <trkpt lat="51.152887903153896" lon="6.158893369138241">
        <ele>36.649999999999999</ele>
        <time>2019-11-10T09:27:52Z</time>
      </trkpt>
      <trkpt lat="51.152900559827685" lon="6.158497408032417">
        <ele>37.460000000000001</ele>
        <time>2019-11-10T09:28:12Z</time>
      </trkpt>
      <trkpt lat="51.152873486280441" lon="6.158336056396365">
        <ele>37.369999999999997</ele>
        <time>2019-11-10T09:28:18Z</time>
      </trkpt>
      <trkpt lat="51.152905253693461" lon="6.158032631501555">
        <ele>37.950000000000003</ele>
        <time>2019-11-10T09:28:34Z</time>
      </trkpt>
      <trkpt lat="51.153066270053387" lon="6.157692242413759">
        <ele>37.729999999999997</ele>
        <time>2019-11-10T09:28:56Z</time>
      </trkpt>
      <trkpt lat="51.153073562309146" lon="6.157675897702575">
        <ele>37.719999999999999</ele>
        <time>2019-11-10T09:28:57Z</time>
      </trkpt>
      <trkpt lat="51.153088314458728" lon="6.157386051490903">
        <ele>37.579999999999998</ele>
        <time>2019-11-10T09:29:12Z</time>
      </trkpt>
      <trkpt lat="51.153076160699129" lon="6.157297287136316">
        <ele>37.530000000000001</ele>
        <time>2019-11-10T09:29:16Z</time>
      </trkpt>
      <trkpt lat="51.153042633086443" lon="6.156964022666216">
        <ele>37.359999999999999</ele>
        <time>2019-11-10T09:29:31Z</time>
      </trkpt>
      <trkpt lat="51.153008434921503" lon="6.156549956649542">
        <ele>37.090000000000003</ele>
        <time>2019-11-10T09:29:51Z</time>
      </trkpt>
      <trkpt lat="51.152931740507483" lon="6.156252818182111">
        <ele>36.850000000000001</ele>
        <time>2019-11-10T09:30:06Z</time>
      </trkpt>
      <trkpt lat="51.152799390256405" lon="6.155985351651907">
        <ele>36.770000000000003</ele>
        <time>2019-11-10T09:30:11Z</time>
      </trkpt>
      <trkpt lat="51.152790756896138" lon="6.155740097165108">
        <ele>36.579999999999998</ele>
        <time>2019-11-10T09:30:23Z</time>
      </trkpt>
      <trkpt lat="51.152792349457741" lon="6.15548956207931">
        <ele>36.270000000000003</ele>
        <time>2019-11-10T09:30:42Z</time>
      </trkpt>
      <trkpt lat="51.152766449376941" lon="6.15528822876513">
        <ele>36.060000000000002</ele>
        <time>2019-11-10T09:30:53Z</time>
      </trkpt>
      <trkpt lat="51.152712972834706" lon="6.154919927939773">
        <ele>35.82</ele>
        <time>2019-11-10T09:31:05Z</time>
      </trkpt>
      <trkpt lat="51.15264818072319" lon="6.154511561617255">
        <ele>35.509999999999998</ele>
        <time>2019-11-10T09:31:22Z</time>
      </trkpt>
      <trkpt lat="51.1525958776474" lon="6.154335793107748">
        <ele>33.030000000000001</ele>
        <time>2019-11-10T09:31:33Z</time>
      </trkpt>
      <trkpt lat="51.152548687532544" lon="6.153950225561857">
        <ele>32.700000000000003</ele>
        <time>2019-11-10T09:31:50Z</time>
      </trkpt>
      <trkpt lat="51.152521697804332" lon="6.153688626363874">
        <ele>32.43</ele>
        <time>2019-11-10T09:32:05Z</time>
      </trkpt>
      <trkpt lat="51.15242631174624" lon="6.15323256701231">
        <ele>32.170000000000002</ele>
        <time>2019-11-10T09:32:20Z</time>
      </trkpt>
      <trkpt lat="51.152355400845408" lon="6.15291447378695">
        <ele>32.030000000000001</ele>
        <time>2019-11-10T09:32:30Z</time>
      </trkpt>
      <trkpt lat="51.152359172701836" lon="6.15289444103837">
        <ele>32.020000000000003</ele>
        <time>2019-11-10T09:32:31Z</time>
      </trkpt>
      <trkpt lat="51.152356658130884" lon="6.152878347784281">
        <ele>32.009999999999998</ele>
        <time>2019-11-10T09:32:32Z</time>
      </trkpt>
      <trkpt lat="51.152353975921869" lon="6.152859823778272">
        <ele>31.989999999999998</ele>
        <time>2019-11-10T09:32:33Z</time>
      </trkpt>
      <trkpt lat="51.15235305391252" lon="6.15283920429647">
        <ele>31.98</ele>
        <time>2019-11-10T09:32:34Z</time>
      </trkpt>
      <trkpt lat="51.152345174923539" lon="6.152814729139209">
        <ele>31.969999999999999</ele>
        <time>2019-11-10T09:32:35Z</time>
      </trkpt>
      <trkpt lat="51.1523212864995" lon="6.152562769129872">
        <ele>31.800000000000001</ele>
        <time>2019-11-10T09:32:50Z</time>
      </trkpt>
      <trkpt lat="51.152315586805344" lon="6.152488337829709">
        <ele>31.77</ele>
        <time>2019-11-10T09:32:53Z</time>
      </trkpt>
      <trkpt lat="51.152312736958265" lon="6.152438633143902">
        <ele>31.73</ele>
        <time>2019-11-10T09:32:56Z</time>
      </trkpt>
      <trkpt lat="51.152249788865447" lon="6.152081061154604">
        <ele>31.57</ele>
        <time>2019-11-10T09:33:13Z</time>
      </trkpt>
      <trkpt lat="51.152178207412362" lon="6.151673197746277">
        <ele>31.41</ele>
        <time>2019-11-10T09:33:30Z</time>
      </trkpt>
      <trkpt lat="51.152154905721545" lon="6.151386201381683">
        <ele>31.27</ele>
        <time>2019-11-10T09:33:48Z</time>
      </trkpt>
      <trkpt lat="51.152110565453768" lon="6.151052266359329">
        <ele>31.079999999999998</ele>
        <time>2019-11-10T09:34:07Z</time>
      </trkpt>
      <trkpt lat="51.152076199650764" lon="6.150663765147328">
        <ele>30.890000000000001</ele>
        <time>2019-11-10T09:34:26Z</time>
      </trkpt>
      <trkpt lat="51.152030183002353" lon="6.150201922282577">
        <ele>30.600000000000001</ele>
        <time>2019-11-10T09:34:48Z</time>
      </trkpt>
      <trkpt lat="51.1519171949476" lon="6.149721639230847">
        <ele>30.329999999999998</ele>
        <time>2019-11-10T09:35:09Z</time>
      </trkpt>
      <trkpt lat="51.151881823316216" lon="6.149431709200144">
        <ele>30.079999999999998</ele>
        <time>2019-11-10T09:35:28Z</time>
      </trkpt>
      <trkpt lat="51.151821305975318" lon="6.149191819131374">
        <ele>29.920000000000002</ele>
        <time>2019-11-10T09:35:40Z</time>
      </trkpt>
      <trkpt lat="51.151800435036421" lon="6.148783704265952">
        <ele>29.66</ele>
        <time>2019-11-10T09:35:58Z</time>
      </trkpt>
      <trkpt lat="51.151735307648778" lon="6.14846795797348">
        <ele>29.440000000000001</ele>
        <time>2019-11-10T09:36:12Z</time>
      </trkpt>
      <trkpt lat="51.151677221059799" lon="6.148193702101708">
        <ele>29.260000000000002</ele>
        <time>2019-11-10T09:36:23Z</time>
      </trkpt>
      <trkpt lat="51.151608070358634" lon="6.14793386310339">
        <ele>31.289999999999999</ele>
        <time>2019-11-10T09:36:36Z</time>
      </trkpt>
      <trkpt lat="51.151529448106885" lon="6.147595066577196">
        <ele>31.039999999999999</ele>
        <time>2019-11-10T09:36:49Z</time>
      </trkpt>
      <trkpt lat="51.151478150859475" lon="6.147314608097076">
        <ele>28.27</ele>
        <time>2019-11-10T09:37:02Z</time>
      </trkpt>
      <trkpt lat="51.151415621861815" lon="6.146917892619968">
        <ele>27.960000000000001</ele>
        <time>2019-11-10T09:37:21Z</time>
      </trkpt>
      <trkpt lat="51.151402713730931" lon="6.146812699735165">
        <ele>30.920000000000002</ele>
        <time>2019-11-10T09:37:25Z</time>
      </trkpt>
      <trkpt lat="51.151382513344288" lon="6.146675571799278">
        <ele>28.489999999999998</ele>
        <time>2019-11-10T09:37:32Z</time>
      </trkpt>
      <trkpt lat="51.151337837800384" lon="6.146337445825338">
        <ele>27.370000000000001</ele>
        <time>2019-11-10T09:37:50Z</time>
      </trkpt>
      <trkpt lat="51.151341022923589" lon="6.146289585158229">
        <ele>27.34</ele>
        <time>2019-11-10T09:37:52Z</time>
      </trkpt>
      <trkpt lat="51.151343872770667" lon="6.146268462762237">
        <ele>30.100000000000001</ele>
        <time>2019-11-10T09:37:53Z</time>
      </trkpt>
      <trkpt lat="51.151348734274507" lon="6.146243987604976">
        <ele>30.059999999999999</ele>
        <time>2019-11-10T09:37:54Z</time>
      </trkpt>
      <trkpt lat="51.151148658245802" lon="6.145026097074151">
        <ele>29.530000000000001</ele>
        <time>2019-11-10T09:38:37Z</time>
      </trkpt>
      <trkpt lat="51.151125356554985" lon="6.144696017727256">
        <ele>24.280000000000001</ele>
        <time>2019-11-10T09:43:24Z</time>
      </trkpt>
      <trkpt lat="51.151113118976355" lon="6.144667351618409">
        <ele>24.289999999999999</ele>
        <time>2019-11-10T09:43:26Z</time>
      </trkpt>
      <trkpt lat="51.15110800601542" lon="6.14464782178402">
        <ele>24.280000000000001</ele>
        <time>2019-11-10T09:43:27Z</time>
      </trkpt>
      <trkpt lat="51.151098785921931" lon="6.144625106826425">
        <ele>24.260000000000002</ele>
        <time>2019-11-10T09:43:28Z</time>
      </trkpt>
      <trkpt lat="51.151000550016761" lon="6.144124874845147">
        <ele>23.289999999999999</ele>
        <time>2019-11-10T09:43:38Z</time>
      </trkpt>
      <trkpt lat="51.150956880301237" lon="6.143883392214775">
        <ele>23.260000000000002</ele>
        <time>2019-11-10T09:43:42Z</time>
      </trkpt>
      <trkpt lat="51.150882616639137" lon="6.143395565450192">
        <ele>23.260000000000002</ele>
        <time>2019-11-10T09:43:49Z</time>
      </trkpt>
      <trkpt lat="51.150830900296569" lon="6.142801120877266">
        <ele>22.43</ele>
        <time>2019-11-10T09:43:58Z</time>
      </trkpt>
      <trkpt lat="51.150840120390058" lon="6.142750242725015">
        <ele>22.43</ele>
        <time>2019-11-10T09:43:59Z</time>
      </trkpt>
      <trkpt lat="51.150845484808087" lon="6.142700621858239">
        <ele>22.420000000000002</ele>
        <time>2019-11-10T09:44:00Z</time>
      </trkpt>
      <trkpt lat="51.150854537263513" lon="6.142649659886956">
        <ele>22.41</ele>
        <time>2019-11-10T09:44:01Z</time>
      </trkpt>
      <trkpt lat="51.150860488414764" lon="6.142592746764422">
        <ele>22.449999999999999</ele>
        <time>2019-11-10T09:44:02Z</time>
      </trkpt>
      <trkpt lat="51.150849591940641" lon="6.142497947439551">
        <ele>22.449999999999999</ele>
        <time>2019-11-10T09:44:03Z</time>
      </trkpt>
      <trkpt lat="51.150844478979707" lon="6.142417062073946">
        <ele>22.41</ele>
        <time>2019-11-10T09:44:04Z</time>
      </trkpt>
      <trkpt lat="51.150840455666184" lon="6.142323603853583">
        <ele>22.399999999999999</ele>
        <time>2019-11-10T09:44:05Z</time>
      </trkpt>
      <trkpt lat="51.150839701294899" lon="6.142238611355424">
        <ele>22.370000000000001</ele>
        <time>2019-11-10T09:44:06Z</time>
      </trkpt>
      <trkpt lat="51.150829559192061" lon="6.142140123993158">
        <ele>22.359999999999999</ele>
        <time>2019-11-10T09:44:07Z</time>
      </trkpt>
      <trkpt lat="51.150817908346653" lon="6.141689848154783">
        <ele>22.300000000000001</ele>
        <time>2019-11-10T09:44:12Z</time>
      </trkpt>
      <trkpt lat="51.150804245844483" lon="6.14119078963995">
        <ele>21.469999999999999</ele>
        <time>2019-11-10T09:44:18Z</time>
      </trkpt>
      <trkpt lat="51.15078404545784" lon="6.140870600938797">
        <ele>21.379999999999999</ele>
        <time>2019-11-10T09:44:22Z</time>
      </trkpt>
      <trkpt lat="51.150788571685553" lon="6.140782590955496">
        <ele>21.379999999999999</ele>
        <time>2019-11-10T09:44:23Z</time>
      </trkpt>
      <trkpt lat="51.15079284645617" lon="6.14071536809206">
        <ele>21.379999999999999</ele>
        <time>2019-11-10T09:44:24Z</time>
      </trkpt>
      <trkpt lat="51.15079334937036" lon="6.140655018389225">
        <ele>21.390000000000001</ele>
        <time>2019-11-10T09:44:25Z</time>
      </trkpt>
      <trkpt lat="51.1507982108742" lon="6.140590310096741">
        <ele>21.370000000000001</ele>
        <time>2019-11-10T09:44:26Z</time>
      </trkpt>
      <trkpt lat="51.15080215036869" lon="6.140513615682721">
        <ele>21.41</ele>
        <time>2019-11-10T09:44:27Z</time>
      </trkpt>
      <trkpt lat="51.150810532271862" lon="6.140445386990905">
        <ele>21.43</ele>
        <time>2019-11-10T09:44:28Z</time>
      </trkpt>
      <trkpt lat="51.150814387947321" lon="6.140318987891078">
        <ele>21.370000000000001</ele>
        <time>2019-11-10T09:44:30Z</time>
      </trkpt>
      <trkpt lat="51.150822266936302" lon="6.140299290418625">
        <ele>21.350000000000001</ele>
        <time>2019-11-10T09:44:31Z</time>
      </trkpt>
      <trkpt lat="51.15085931494832" lon="6.139903664588928">
        <ele>21.16</ele>
        <time>2019-11-10T09:44:42Z</time>
      </trkpt>
      <trkpt lat="51.150876665487885" lon="6.139450035989285">
        <ele>20.75</ele>
        <time>2019-11-10T09:44:56Z</time>
      </trkpt>
      <trkpt lat="51.150868115946651" lon="6.139347441494465">
        <ele>20.670000000000002</ele>
        <time>2019-11-10T09:45:00Z</time>
      </trkpt>
      <trkpt lat="51.150891501456499" lon="6.139117861166596">
        <ele>20.530000000000001</ele>
        <time>2019-11-10T09:45:09Z</time>
      </trkpt>
      <trkpt lat="51.150943636894226" lon="6.138919042423368">
        <ele>17.09</ele>
        <time>2019-11-10T09:45:19Z</time>
      </trkpt>
      <trkpt lat="51.150948079302907" lon="6.13889766857028">
        <ele>17.09</ele>
        <time>2019-11-10T09:45:20Z</time>
      </trkpt>
      <trkpt lat="51.15095654502511" lon="6.138873612508178">
        <ele>20.960000000000001</ele>
        <time>2019-11-10T09:45:21Z</time>
      </trkpt>
      <trkpt lat="51.150960400700569" lon="6.138846790418029">
        <ele>20.920000000000002</ele>
        <time>2019-11-10T09:45:22Z</time>
      </trkpt>
      <trkpt lat="51.150982361286879" lon="6.138757690787315">
        <ele>20.84</ele>
        <time>2019-11-10T09:45:26Z</time>
      </trkpt>
      <trkpt lat="51.150988144800067" lon="6.13874570466578">
        <ele>20.800000000000001</ele>
        <time>2019-11-10T09:45:27Z</time>
      </trkpt>
      <trkpt lat="51.15101714618504" lon="6.13859717734158">
        <ele>20.620000000000001</ele>
        <time>2019-11-10T09:45:36Z</time>
      </trkpt>
      <trkpt lat="51.15109140984714" lon="6.138311270624399">
        <ele>20.390000000000001</ele>
        <time>2019-11-10T09:45:50Z</time>
      </trkpt>
      <trkpt lat="51.151137761771679" lon="6.138204233720899">
        <ele>14.16</ele>
        <time>2019-11-10T09:45:56Z</time>
      </trkpt>
      <trkpt lat="51.151123847812414" lon="6.138162827119231">
        <ele>19.690000000000001</ele>
        <time>2019-11-10T09:45:57Z</time>
      </trkpt>
      <trkpt lat="51.151103815063834" lon="6.138107758015394">
        <ele>19.649999999999999</ele>
        <time>2019-11-10T09:45:58Z</time>
      </trkpt>
      <trkpt lat="51.151125356554985" lon="6.138029638677836">
        <ele>19.57</ele>
        <time>2019-11-10T09:46:02Z</time>
      </trkpt>
      <trkpt lat="51.15113683976233" lon="6.138001726940274">
        <ele>19.52</ele>
        <time>2019-11-10T09:46:03Z</time>
      </trkpt>
      <trkpt lat="51.151145724579692" lon="6.137983957305551">
        <ele>19.510000000000002</ele>
        <time>2019-11-10T09:46:04Z</time>
      </trkpt>
      <trkpt lat="51.151154777035117" lon="6.137958643957973">
        <ele>19.510000000000002</ele>
        <time>2019-11-10T09:46:05Z</time>
      </trkpt>
      <trkpt lat="51.151147903874516" lon="6.137919249013066">
        <ele>19.489999999999998</ele>
        <time>2019-11-10T09:46:06Z</time>
      </trkpt>
      <trkpt lat="51.151154274120927" lon="6.137897875159979">
        <ele>19.460000000000001</ele>
        <time>2019-11-10T09:46:07Z</time>
      </trkpt>
      <trkpt lat="51.151161566376686" lon="6.137876166030765">
        <ele>19.460000000000001</ele>
        <time>2019-11-10T09:46:08Z</time>
      </trkpt>
      <trkpt lat="51.151249743998051" lon="6.13749872893095">
        <ele>15.619999999999999</ele>
        <time>2019-11-10T09:46:23Z</time>
      </trkpt>
      <trkpt lat="51.151324510574341" lon="6.137219527736306">
        <ele>15.92</ele>
        <time>2019-11-10T09:46:36Z</time>
      </trkpt>
      <trkpt lat="51.151333143934608" lon="6.137204272672534">
        <ele>15.890000000000001</ele>
        <time>2019-11-10T09:46:37Z</time>
      </trkpt>
      <trkpt lat="51.151378573849797" lon="6.137033952400088">
        <ele>15.74</ele>
        <time>2019-11-10T09:46:46Z</time>
      </trkpt>
      <trkpt lat="51.1513836029917" lon="6.137010734528303">
        <ele>15.74</ele>
        <time>2019-11-10T09:46:47Z</time>
      </trkpt>
      <trkpt lat="51.151390308514237" lon="6.136990869417787">
        <ele>15.73</ele>
        <time>2019-11-10T09:46:48Z</time>
      </trkpt>
      <trkpt lat="51.151420818641782" lon="6.136889616027474">
        <ele>15.65</ele>
        <time>2019-11-10T09:46:53Z</time>
      </trkpt>
      <trkpt lat="51.151481755077839" lon="6.136642182245851">
        <ele>14.69</ele>
        <time>2019-11-10T09:47:04Z</time>
      </trkpt>
      <trkpt lat="51.151952734217048" lon="6.134265074506402">
        <ele>8.300000000000001</ele>
        <time>2019-11-10T09:48:50Z</time>
      </trkpt>
      <trkpt lat="51.151957344263792" lon="6.134215872734785">
        <ele>8.26</ele>
        <time>2019-11-10T09:48:52Z</time>
      </trkpt>
      <trkpt lat="51.151937730610371" lon="6.133834579959512">
        <ele>6.33</ele>
        <time>2019-11-10T09:49:07Z</time>
      </trkpt>
      <trkpt lat="51.151940999552608" lon="6.133815050125122">
        <ele>6.32</ele>
        <time>2019-11-10T09:49:08Z</time>
      </trkpt>
      <trkpt lat="51.151989614591002" lon="6.133667277172208">
        <ele>6.23</ele>
        <time>2019-11-10T09:49:15Z</time>
      </trkpt>
      <trkpt lat="51.152007216587663" lon="6.133607598021627">
        <ele>6.18</ele>
        <time>2019-11-10T09:49:18Z</time>
      </trkpt>
      <trkpt lat="51.152076618745923" lon="6.133274333551526">
        <ele>5.32</ele>
        <time>2019-11-10T09:49:29Z</time>
      </trkpt>
      <trkpt lat="51.152130179107189" lon="6.132938554510474">
        <ele>4.35</ele>
        <time>2019-11-10T09:49:42Z</time>
      </trkpt>
      <trkpt lat="51.152184912934899" lon="6.132635800167918">
        <ele>4.23</ele>
        <time>2019-11-10T09:49:55Z</time>
      </trkpt>
      <trkpt lat="51.152272587642074" lon="6.132305469363928">
        <ele>3.32</ele>
        <time>2019-11-10T09:50:10Z</time>
      </trkpt>
      <trkpt lat="51.152286501601338" lon="6.132207233458757">
        <ele>2.49</ele>
        <time>2019-11-10T09:50:14Z</time>
      </trkpt>
      <trkpt lat="51.152308881282806" lon="6.132123498246074">
        <ele>2.47</ele>
        <time>2019-11-10T09:50:18Z</time>
      </trkpt>
      <trkpt lat="51.152310306206346" lon="6.132099609822035">
        <ele>2.46</ele>
        <time>2019-11-10T09:50:19Z</time>
      </trkpt>
      <trkpt lat="51.152312653139234" lon="6.132068848237395">
        <ele>2.46</ele>
        <time>2019-11-10T09:50:20Z</time>
      </trkpt>
      <trkpt lat="51.152317095547915" lon="6.132037919014692">
        <ele>1.62</ele>
        <time>2019-11-10T09:50:21Z</time>
      </trkpt>
      <trkpt lat="51.152318520471454" lon="6.132006151601672">
        <ele>1.62</ele>
        <time>2019-11-10T09:50:22Z</time>
      </trkpt>
      <trkpt lat="51.152388090267777" lon="6.131742289289832">
        <ele>1.56</ele>
        <time>2019-11-10T09:50:36Z</time>
      </trkpt>
      <trkpt lat="51.152390772476792" lon="6.131715634837747">
        <ele>0.75</ele>
        <time>2019-11-10T09:50:37Z</time>
      </trkpt>
      <trkpt lat="51.152495127171278" lon="6.131431823596358">
        <ele>0.72</ele>
        <time>2019-11-10T09:50:49Z</time>
      </trkpt>
      <trkpt lat="51.152548855170608" lon="6.130475699901581">
        <ele>0.62</ele>
        <time>2019-11-10T09:51:34Z</time>
      </trkpt>
      <trkpt lat="51.152550196275115" lon="6.13045122474432">
        <ele>0.62</ele>
        <time>2019-11-10T09:51:35Z</time>
      </trkpt>
      <trkpt lat="51.152552459388971" lon="6.130423815920949">
        <ele>0.61</ele>
        <time>2019-11-10T09:51:36Z</time>
      </trkpt>
      <trkpt lat="51.152615072205663" lon="6.129942610859871">
        <ele>2.8</ele>
        <time>2019-11-10T09:51:56Z</time>
      </trkpt>
      <trkpt lat="51.153153777122498" lon="6.128137400373817">
        <ele>0.64</ele>
        <time>2019-11-10T09:53:53Z</time>
      </trkpt>
      <trkpt lat="51.153517551720142" lon="6.126864440739155">
        <ele>0.76</ele>
        <time>2019-11-10T09:54:03Z</time>
      </trkpt>
      <trkpt lat="51.154191289097071" lon="6.122312229126692">
        <ele>0.22</ele>
        <time>2019-11-10T10:03:13Z</time>
      </trkpt>
      <trkpt lat="51.15435297600925" lon="6.120133185759187">
        <ele>0.5</ele>
        <time>2019-11-10T10:03:29Z</time>
      </trkpt>
      <trkpt lat="51.158034056425095" lon="6.105357902124524">
        <ele>7.98</ele>
        <time>2019-11-10T10:17:30Z</time>
      </trkpt>
      <trkpt lat="51.1580406781286" lon="6.105365445837379">
        <ele>7.99</ele>
        <time>2019-11-10T10:17:31Z</time>
      </trkpt>
      <trkpt lat="51.158081581816077" lon="6.105386568233371">
        <ele>8</ele>
        <time>2019-11-10T10:17:33Z</time>
      </trkpt>
      <trkpt lat="51.158229522407055" lon="6.105330660939217">
        <ele>8.130000000000001</ele>
        <time>2019-11-10T10:17:47Z</time>
      </trkpt>
      <trkpt lat="51.158210579305887" lon="6.10534256324172">
        <ele>8.25</ele>
        <time>2019-11-10T10:18:02Z</time>
      </trkpt>
      <trkpt lat="51.158197838813066" lon="6.105342647060752">
        <ele>8.27</ele>
        <time>2019-11-10T10:18:03Z</time>
      </trkpt>
      <trkpt lat="51.158184930682182" lon="6.105338707566261">
        <ele>8.279999999999999</ele>
        <time>2019-11-10T10:18:04Z</time>
      </trkpt>
      <trkpt lat="51.158175207674503" lon="6.105332672595978">
        <ele>8.289999999999999</ele>
        <time>2019-11-10T10:18:05Z</time>
      </trkpt>
      <trkpt lat="51.158162383362651" lon="6.105325212702155">
        <ele>8.310000000000001</ele>
        <time>2019-11-10T10:18:06Z</time>
      </trkpt>
      <trkpt lat="51.158150564879179" lon="6.105312472209334">
        <ele>8.310000000000001</ele>
        <time>2019-11-10T10:18:07Z</time>
      </trkpt>
      <trkpt lat="51.158146793022752" lon="6.105289338156581">
        <ele>8.33</ele>
        <time>2019-11-10T10:18:08Z</time>
      </trkpt>
      <trkpt lat="51.158147715032101" lon="6.105258241295815">
        <ele>8.35</ele>
        <time>2019-11-10T10:18:09Z</time>
      </trkpt>
      <trkpt lat="51.158148050308228" lon="6.105240387842059">
        <ele>8.369999999999999</ele>
        <time>2019-11-10T10:18:10Z</time>
      </trkpt>
      <trkpt lat="51.158153163269162" lon="6.105223875492811">
        <ele>8.369999999999999</ele>
        <time>2019-11-10T10:18:11Z</time>
      </trkpt>
      <trkpt lat="51.158163053914905" lon="6.105202753096819">
        <ele>8.380000000000001</ele>
        <time>2019-11-10T10:18:12Z</time>
      </trkpt>
      <trkpt lat="51.158168837428093" lon="6.105183642357588">
        <ele>8.380000000000001</ele>
        <time>2019-11-10T10:18:13Z</time>
      </trkpt>
      <trkpt lat="51.158207729458809" lon="6.105105103924871">
        <ele>5.26</ele>
        <time>2019-11-10T10:18:18Z</time>
      </trkpt>
      <trkpt lat="51.158218206837773" lon="6.105090184137225">
        <ele>5.27</ele>
        <time>2019-11-10T10:18:19Z</time>
      </trkpt>
      <trkpt lat="51.158361872658134" lon="6.10486663877964">
        <ele>5.46</ele>
        <time>2019-11-10T10:18:33Z</time>
      </trkpt>
      <trkpt lat="51.158484751358628" lon="6.104603866115212">
        <ele>5.62</ele>
        <time>2019-11-10T10:18:46Z</time>
      </trkpt>
      <trkpt lat="51.158540826290846" lon="6.104485346004367">
        <ele>5.67</ele>
        <time>2019-11-10T10:18:52Z</time>
      </trkpt>
      <trkpt lat="51.158560020849109" lon="6.104446286335588">
        <ele>5.69</ele>
        <time>2019-11-10T10:18:54Z</time>
      </trkpt>
      <trkpt lat="51.158568318933249" lon="6.104425163939595">
        <ele>5.69</ele>
        <time>2019-11-10T10:18:55Z</time>
      </trkpt>
      <trkpt lat="51.158571671694517" lon="6.104400102049112">
        <ele>5.71</ele>
        <time>2019-11-10T10:18:56Z</time>
      </trkpt>
      <trkpt lat="51.158591536805034" lon="6.104360371828079">
        <ele>5.73</ele>
        <time>2019-11-10T10:18:58Z</time>
      </trkpt>
      <trkpt lat="51.15859966725111" lon="6.104336231946945">
        <ele>5.74</ele>
        <time>2019-11-10T10:18:59Z</time>
      </trkpt>
      <trkpt lat="51.158610563725233" lon="6.104311086237431">
        <ele>5.74</ele>
        <time>2019-11-10T10:19:00Z</time>
      </trkpt>
      <trkpt lat="51.158617939800024" lon="6.104289377108216">
        <ele>5.74</ele>
        <time>2019-11-10T10:19:01Z</time>
      </trkpt>
      <trkpt lat="51.158627914264798" lon="6.104271691292524">
        <ele>5.74</ele>
        <time>2019-11-10T10:19:02Z</time>
      </trkpt>
      <trkpt lat="51.158636547625065" lon="6.104249730706215">
        <ele>5.76</ele>
        <time>2019-11-10T10:19:03Z</time>
      </trkpt>
      <trkpt lat="51.158641325309873" lon="6.104217292740941">
        <ele>5.75</ele>
        <time>2019-11-10T10:19:04Z</time>
      </trkpt>
      <trkpt lat="51.158680468797684" lon="6.103987880051136">
        <ele>5.89</ele>
        <time>2019-11-10T10:19:20Z</time>
      </trkpt>
      <trkpt lat="51.158688766881824" lon="6.103960638865829">
        <ele>5.91</ele>
        <time>2019-11-10T10:19:22Z</time>
      </trkpt>
      <trkpt lat="51.158689772710204" lon="6.103959130123258">
        <ele>6.1</ele>
        <time>2019-11-10T10:19:36Z</time>
      </trkpt>
      <trkpt lat="51.158732939511538" lon="6.10395535826683">
        <ele>6.38</ele>
        <time>2019-11-10T10:19:59Z</time>
      </trkpt>
      <trkpt lat="51.158761018887162" lon="6.103928117081523">
        <ele>6.41</ele>
        <time>2019-11-10T10:20:02Z</time>
      </trkpt>
      <trkpt lat="51.158769987523556" lon="6.103914538398385">
        <ele>6.46</ele>
        <time>2019-11-10T10:20:03Z</time>
      </trkpt>
      <trkpt lat="51.15886889398098" lon="6.103701554238796">
        <ele>6.65</ele>
        <time>2019-11-10T10:20:18Z</time>
      </trkpt>
      <trkpt lat="51.158919520676136" lon="6.10363039188087">
        <ele>6.7</ele>
        <time>2019-11-10T10:20:24Z</time>
      </trkpt>
      <trkpt lat="51.158937038853765" lon="6.103617399930954">
        <ele>6.77</ele>
        <time>2019-11-10T10:20:25Z</time>
      </trkpt>
      <trkpt lat="51.159130576997995" lon="6.103373067453504">
        <ele>6.92</ele>
        <time>2019-11-10T10:20:38Z</time>
      </trkpt>
      <trkpt lat="51.159253623336554" lon="6.103142313659191">
        <ele>7.08</ele>
        <time>2019-11-10T10:20:49Z</time>
      </trkpt>
      <trkpt lat="51.159257730469108" lon="6.103117754682899">
        <ele>7.08</ele>
        <time>2019-11-10T10:20:50Z</time>
      </trkpt>
      <trkpt lat="51.159270219504833" lon="6.103095039725304">
        <ele>7.1</ele>
        <time>2019-11-10T10:20:51Z</time>
      </trkpt>
      <trkpt lat="51.159276505932212" lon="6.103068552911282">
        <ele>7.1</ele>
        <time>2019-11-10T10:20:52Z</time>
      </trkpt>
      <trkpt lat="51.15928522311151" lon="6.103042904287577">
        <ele>7.1</ele>
        <time>2019-11-10T10:20:53Z</time>
      </trkpt>
      <trkpt lat="51.159291593357921" lon="6.103022284805775">
        <ele>7.12</ele>
        <time>2019-11-10T10:20:54Z</time>
      </trkpt>
      <trkpt lat="51.159299975261092" lon="6.103005101904273">
        <ele>7.16</ele>
        <time>2019-11-10T10:20:55Z</time>
      </trkpt>
      <trkpt lat="51.159310285001993" lon="6.102989930659533">
        <ele>7.15</ele>
        <time>2019-11-10T10:20:56Z</time>
      </trkpt>
      <trkpt lat="51.159440623596311" lon="6.102803433313966">
        <ele>7.28</ele>
        <time>2019-11-10T10:21:08Z</time>
      </trkpt>
      <trkpt lat="51.159568782895803" lon="6.102573685348034">
        <ele>7.45</ele>
        <time>2019-11-10T10:21:20Z</time>
      </trkpt>
      <trkpt lat="51.15971764549613" lon="6.10228224657476">
        <ele>7.75</ele>
        <time>2019-11-10T10:21:35Z</time>
      </trkpt>
      <trkpt lat="51.159868184477091" lon="6.102028274908662">
        <ele>7.95</ele>
        <time>2019-11-10T10:21:49Z</time>
      </trkpt>
      <trkpt lat="51.159992823377252" lon="6.101838005706668">
        <ele>8.1</ele>
        <time>2019-11-10T10:22:00Z</time>
      </trkpt>
      <trkpt lat="51.160011179745197" lon="6.101808417588472">
        <ele>8.130000000000001</ele>
        <time>2019-11-10T10:22:02Z</time>
      </trkpt>
      <trkpt lat="51.160021992400289" lon="6.101791905239224">
        <ele>8.15</ele>
        <time>2019-11-10T10:22:03Z</time>
      </trkpt>
      <trkpt lat="51.160175716504455" lon="6.101659638807178">
        <ele>8.35</ele>
        <time>2019-11-10T10:22:17Z</time>
      </trkpt>
      <trkpt lat="51.160235060378909" lon="6.101611610502005">
        <ele>8.43</ele>
        <time>2019-11-10T10:22:22Z</time>
      </trkpt>
      <trkpt lat="51.160422312095761" lon="6.101372390985489">
        <ele>8.6</ele>
        <time>2019-11-10T10:22:37Z</time>
      </trkpt>
      <trkpt lat="51.160525577142835" lon="6.101168291643262">
        <ele>8.73</ele>
        <time>2019-11-10T10:22:48Z</time>
      </trkpt>
      <trkpt lat="51.160549465566874" lon="6.101134764030576">
        <ele>8.75</ele>
        <time>2019-11-10T10:22:50Z</time>
      </trkpt>
      <trkpt lat="51.160556590184569" lon="6.101112887263298">
        <ele>8.76</ele>
        <time>2019-11-10T10:22:51Z</time>
      </trkpt>
      <trkpt lat="51.160562625154853" lon="6.101087825372815">
        <ele>8.77</ele>
        <time>2019-11-10T10:22:52Z</time>
      </trkpt>
      <trkpt lat="51.160564469173551" lon="6.101063098758459">
        <ele>8.77</ele>
        <time>2019-11-10T10:22:53Z</time>
      </trkpt>
      <trkpt lat="51.160569917410612" lon="6.101039042696357">
        <ele>8.77</ele>
        <time>2019-11-10T10:22:54Z</time>
      </trkpt>
      <trkpt lat="51.160574024543166" lon="6.101015405729413">
        <ele>8.810000000000001</ele>
        <time>2019-11-10T10:22:55Z</time>
      </trkpt>
      <trkpt lat="51.160577796399593" lon="6.100991014391184">
        <ele>8.800000000000001</ele>
        <time>2019-11-10T10:22:56Z</time>
      </trkpt>
      <trkpt lat="51.160581652075052" lon="6.100970478728414">
        <ele>8.800000000000001</ele>
        <time>2019-11-10T10:22:57Z</time>
      </trkpt>
      <trkpt lat="51.160592129454017" lon="6.100962515920401">
        <ele>8.800000000000001</ele>
        <time>2019-11-10T10:22:58Z</time>
      </trkpt>
      <trkpt lat="51.160603193566203" lon="6.100954804569483">
        <ele>8.82</ele>
        <time>2019-11-10T10:22:59Z</time>
      </trkpt>
      <trkpt lat="51.160612916573882" lon="6.100952373817563">
        <ele>8.82</ele>
        <time>2019-11-10T10:23:00Z</time>
      </trkpt>
      <trkpt lat="51.160622388124466" lon="6.100951703265309">
        <ele>8.880000000000001</ele>
        <time>2019-11-10T10:23:01Z</time>
      </trkpt>
      <trkpt lat="51.160634038969874" lon="6.100950697436929">
        <ele>8.84</ele>
        <time>2019-11-10T10:23:02Z</time>
      </trkpt>
      <trkpt lat="51.160720204934478" lon="6.100842906162143">
        <ele>10.35</ele>
        <time>2019-11-10T10:23:13Z</time>
      </trkpt>
      <trkpt lat="51.160728503018618" lon="6.100833434611559">
        <ele>10.32</ele>
        <time>2019-11-10T10:23:14Z</time>
      </trkpt>
      <trkpt lat="51.160738728940487" lon="6.100824046880007">
        <ele>10.33</ele>
        <time>2019-11-10T10:23:15Z</time>
      </trkpt>
      <trkpt lat="51.160803437232971" lon="6.100772581994534">
        <ele>10.390000000000001</ele>
        <time>2019-11-10T10:23:20Z</time>
      </trkpt>
      <trkpt lat="51.160818608477712" lon="6.100768139585853">
        <ele>10.41</ele>
        <time>2019-11-10T10:23:21Z</time>
      </trkpt>
      <trkpt lat="51.161008961498737" lon="6.100637800991535">
        <ele>10.56</ele>
        <time>2019-11-10T10:23:35Z</time>
      </trkpt>
      <trkpt lat="51.161215910688043" lon="6.100375866517425">
        <ele>10.640000000000001</ele>
        <time>2019-11-10T10:23:52Z</time>
      </trkpt>
      <trkpt lat="51.161388494074345" lon="6.100078476592898">
        <ele>10.74</ele>
        <time>2019-11-10T10:24:07Z</time>
      </trkpt>
      <trkpt lat="51.161541966721416" lon="6.099763568490744">
        <ele>10.82</ele>
        <time>2019-11-10T10:24:23Z</time>
      </trkpt>
      <trkpt lat="51.16155588068068" lon="6.099747391417623">
        <ele>10.82</ele>
        <time>2019-11-10T10:24:24Z</time>
      </trkpt>
      <trkpt lat="51.161570213735104" lon="6.099729370325804">
        <ele>10.83</ele>
        <time>2019-11-10T10:24:25Z</time>
      </trkpt>
      <trkpt lat="51.161572393029928" lon="6.099705817177892">
        <ele>10.83</ele>
        <time>2019-11-10T10:24:26Z</time>
      </trkpt>
      <trkpt lat="51.161582535132766" lon="6.099680420011282">
        <ele>10.84</ele>
        <time>2019-11-10T10:24:27Z</time>
      </trkpt>
      <trkpt lat="51.161746317520738" lon="6.099470620974898">
        <ele>10.9</ele>
        <time>2019-11-10T10:24:41Z</time>
      </trkpt>
      <trkpt lat="51.161837596446276" lon="6.099282698705792">
        <ele>10.83</ele>
        <time>2019-11-10T10:24:53Z</time>
      </trkpt>
      <trkpt lat="51.162054017186165" lon="6.099019842222333">
        <ele>10.890000000000001</ele>
        <time>2019-11-10T10:25:11Z</time>
      </trkpt>
      <trkpt lat="51.162093998864293" lon="6.09898648224771">
        <ele>10.91</ele>
        <time>2019-11-10T10:25:14Z</time>
      </trkpt>
      <trkpt lat="51.162265911698341" lon="6.098755476996303">
        <ele>10.93</ele>
        <time>2019-11-10T10:25:28Z</time>
      </trkpt>
      <trkpt lat="51.162403710186481" lon="6.09851541928947">
        <ele>10.949999999999999</ele>
        <time>2019-11-10T10:25:42Z</time>
      </trkpt>
      <trkpt lat="51.162469508126378" lon="6.098359012976289">
        <ele>10.93</ele>
        <time>2019-11-10T10:25:51Z</time>
      </trkpt>
      <trkpt lat="51.162612335756421" lon="6.098112668842077">
        <ele>10.960000000000001</ele>
        <time>2019-11-10T10:26:05Z</time>
      </trkpt>
      <trkpt lat="51.16272758692503" lon="6.097904127091169">
        <ele>10.94</ele>
        <time>2019-11-10T10:26:18Z</time>
      </trkpt>
      <trkpt lat="51.162967057898641" lon="6.097609084099531">
        <ele>8.539999999999999</ele>
        <time>2019-11-10T10:26:34Z</time>
      </trkpt>
      <trkpt lat="51.163127152249217" lon="6.09740280546248">
        <ele>8.550000000000001</ele>
        <time>2019-11-10T10:26:50Z</time>
      </trkpt>
      <trkpt lat="51.16315514780581" lon="6.097357459366322">
        <ele>7.24</ele>
        <time>2019-11-10T10:26:52Z</time>
      </trkpt>
      <trkpt lat="51.163356229662895" lon="6.097080856561661">
        <ele>7.21</ele>
        <time>2019-11-10T10:27:03Z</time>
      </trkpt>
      <trkpt lat="51.163545828312635" lon="6.096786735579372">
        <ele>7.16</ele>
        <time>2019-11-10T10:27:13Z</time>
      </trkpt>
      <trkpt lat="51.163843888789415" lon="6.096475934609771">
        <ele>7.1</ele>
        <time>2019-11-10T10:27:23Z</time>
      </trkpt>
      <trkpt lat="51.163862328976393" lon="6.096451794728637">
        <ele>7.08</ele>
        <time>2019-11-10T10:27:24Z</time>
      </trkpt>
      <trkpt lat="51.163880517706275" lon="6.096411729231477">
        <ele>7.07</ele>
        <time>2019-11-10T10:27:25Z</time>
      </trkpt>
      <trkpt lat="51.163888983428478" lon="6.096376022323966">
        <ele>7.05</ele>
        <time>2019-11-10T10:27:26Z</time>
      </trkpt>
      <trkpt lat="51.163936676457524" lon="6.096334615722299">
        <ele>7.05</ele>
        <time>2019-11-10T10:27:27Z</time>
      </trkpt>
      <trkpt lat="51.163959978148341" lon="6.096312487497926">
        <ele>7.04</ele>
        <time>2019-11-10T10:27:28Z</time>
      </trkpt>
      <trkpt lat="51.16397749632597" lon="6.096301423385739">
        <ele>7.03</ele>
        <time>2019-11-10T10:27:29Z</time>
      </trkpt>
      <trkpt lat="51.163990739732981" lon="6.096289269626141">
        <ele>7.01</ele>
        <time>2019-11-10T10:27:30Z</time>
      </trkpt>
      <trkpt lat="51.164005408063531" lon="6.096266387030482">
        <ele>7</ele>
        <time>2019-11-10T10:27:31Z</time>
      </trkpt>
      <trkpt lat="51.164023093879223" lon="6.096245516091585">
        <ele>6.97</ele>
        <time>2019-11-10T10:27:32Z</time>
      </trkpt>
      <trkpt lat="51.164041282609105" lon="6.096224226057529">
        <ele>6.94</ele>
        <time>2019-11-10T10:27:33Z</time>
      </trkpt>
      <trkpt lat="51.164072463288903" lon="6.096174605190754">
        <ele>6.92</ele>
        <time>2019-11-10T10:27:34Z</time>
      </trkpt>
      <trkpt lat="51.164105068892241" lon="6.09612456522882">
        <ele>6.85</ele>
        <time>2019-11-10T10:27:36Z</time>
      </trkpt>
      <trkpt lat="51.1641641613096" lon="6.096053319051862">
        <ele>6.83</ele>
        <time>2019-11-10T10:27:38Z</time>
      </trkpt>
      <trkpt lat="51.164165083318949" lon="6.096018366515636">
        <ele>6.8</ele>
        <time>2019-11-10T10:27:39Z</time>
      </trkpt>
      <trkpt lat="51.164257787168026" lon="6.095904875546694">
        <ele>6.7</ele>
        <time>2019-11-10T10:27:43Z</time>
      </trkpt>
      <trkpt lat="51.164309419691563" lon="6.095881154760718">
        <ele>6.7</ele>
        <time>2019-11-10T10:27:44Z</time>
      </trkpt>
      <trkpt lat="51.164435734972358" lon="6.095757270231843">
        <ele>9.19</ele>
        <time>2019-11-10T10:27:48Z</time>
      </trkpt>
      <trkpt lat="51.164691634476185" lon="6.095502628013492">
        <ele>10.68</ele>
        <time>2019-11-10T10:28:01Z</time>
      </trkpt>
      <trkpt lat="51.164981061592698" lon="6.095161736011505">
        <ele>13.279999999999999</ele>
        <time>2019-11-10T10:28:12Z</time>
      </trkpt>
      <trkpt lat="51.165195303037763" lon="6.094738617539406">
        <ele>12.85</ele>
        <time>2019-11-10T10:28:24Z</time>
      </trkpt>
      <trkpt lat="51.165434522554278" lon="6.094308877363801">
        <ele>12.43</ele>
        <time>2019-11-10T10:28:35Z</time>
      </trkpt>
      <trkpt lat="51.165450029075146" lon="6.09428339637816">
        <ele>12.380000000000001</ele>
        <time>2019-11-10T10:28:36Z</time>
      </trkpt>
      <trkpt lat="51.165467463433743" lon="6.094242576509714">
        <ele>12.32</ele>
        <time>2019-11-10T10:28:37Z</time>
      </trkpt>
      <trkpt lat="51.165573829784989" lon="6.094049625098705">
        <ele>9.94</ele>
        <time>2019-11-10T10:28:42Z</time>
      </trkpt>
      <trkpt lat="51.165641220286489" lon="6.093912580981851">
        <ele>8.970000000000001</ele>
        <time>2019-11-10T10:28:46Z</time>
      </trkpt>
      <trkpt lat="51.165673155337572" lon="6.093856086954474">
        <ele>8.91</ele>
        <time>2019-11-10T10:28:48Z</time>
      </trkpt>
      <trkpt lat="51.165780108422041" lon="6.093446714803577">
        <ele>5.93</ele>
        <time>2019-11-10T10:29:08Z</time>
      </trkpt>
      <trkpt lat="51.165805086493492" lon="6.0933833476156">
        <ele>0.4</ele>
        <time>2019-11-10T10:29:12Z</time>
      </trkpt>
      <trkpt lat="51.165801482275128" lon="6.093355435878038">
        <ele>5.82</ele>
        <time>2019-11-10T10:29:13Z</time>
      </trkpt>
      <trkpt lat="51.165804164484143" lon="6.0933349840343">
        <ele>5.65</ele>
        <time>2019-11-10T10:29:14Z</time>
      </trkpt>
      <trkpt lat="51.165811540558934" lon="6.093316124752164">
        <ele>5.61</ele>
        <time>2019-11-10T10:29:15Z</time>
      </trkpt>
      <trkpt lat="51.165826627984643" lon="6.093286871910095">
        <ele>5.59</ele>
        <time>2019-11-10T10:29:16Z</time>
      </trkpt>
      <trkpt lat="51.165835345163941" lon="6.093264743685722">
        <ele>5.56</ele>
        <time>2019-11-10T10:29:17Z</time>
      </trkpt>
      <trkpt lat="51.165844984352589" lon="6.093244375661016">
        <ele>5.54</ele>
        <time>2019-11-10T10:29:18Z</time>
      </trkpt>
      <trkpt lat="51.16585923358798" lon="6.093213614076376">
        <ele>3.21</ele>
        <time>2019-11-10T10:29:20Z</time>
      </trkpt>
      <trkpt lat="51.165904076769948" lon="6.092958636581898">
        <ele>3.11</ele>
        <time>2019-11-10T10:29:31Z</time>
      </trkpt>
      <trkpt lat="51.166164251044393" lon="6.092714471742511">
        <ele>4.04</ele>
        <time>2019-11-10T10:33:29Z</time>
      </trkpt>
      <trkpt lat="51.166172800585628" lon="6.092691337689757">
        <ele>4.05</ele>
        <time>2019-11-10T10:33:30Z</time>
      </trkpt>
      <trkpt lat="51.166184702888131" lon="6.092661414295435">
        <ele>4.05</ele>
        <time>2019-11-10T10:33:31Z</time>
      </trkpt>
      <trkpt lat="51.16620222106576" lon="6.09260642901063">
        <ele>4.07</ele>
        <time>2019-11-10T10:33:33Z</time>
      </trkpt>
      <trkpt lat="51.166200963780284" lon="6.092577679082751">
        <ele>4.07</ele>
        <time>2019-11-10T10:33:34Z</time>
      </trkpt>
      <trkpt lat="51.166206747293472" lon="6.092551946640015">
        <ele>4.07</ele>
        <time>2019-11-10T10:33:35Z</time>
      </trkpt>
      <trkpt lat="51.166237089782953" lon="6.092210048809648">
        <ele>4.14</ele>
        <time>2019-11-10T10:33:52Z</time>
      </trkpt>
      <trkpt lat="51.16633708588779" lon="6.091830348595977">
        <ele>4.13</ele>
        <time>2019-11-10T10:34:11Z</time>
      </trkpt>
      <trkpt lat="51.166470190510154" lon="6.091566821560264">
        <ele>3.36</ele>
        <time>2019-11-10T10:34:24Z</time>
      </trkpt>
      <trkpt lat="51.166486535221338" lon="6.091545363888145">
        <ele>3.37</ele>
        <time>2019-11-10T10:34:25Z</time>
      </trkpt>
      <trkpt lat="51.166498605161905" lon="6.091521475464106">
        <ele>3.37</ele>
        <time>2019-11-10T10:34:26Z</time>
      </trkpt>
      <trkpt lat="51.166515117511153" lon="6.091493563726544">
        <ele>3.36</ele>
        <time>2019-11-10T10:34:27Z</time>
      </trkpt>
      <trkpt lat="51.166590470820665" lon="6.091270437464118">
        <ele>3.35</ele>
        <time>2019-11-10T10:34:38Z</time>
      </trkpt>
      <trkpt lat="51.16659608669579" lon="6.09124856069684">
        <ele>3.35</ele>
        <time>2019-11-10T10:34:39Z</time>
      </trkpt>
      <trkpt lat="51.166813094168901" lon="6.090525118634105">
        <ele>3.4</ele>
        <time>2019-11-10T10:35:11Z</time>
      </trkpt>
      <trkpt lat="51.166818626224995" lon="6.090495446696878">
        <ele>3.4</ele>
        <time>2019-11-10T10:35:12Z</time>
      </trkpt>
      <trkpt lat="51.166897164657712" lon="6.090214066207409">
        <ele>3.47</ele>
        <time>2019-11-10T10:35:26Z</time>
      </trkpt>
      <trkpt lat="51.167009314522147" lon="6.089916927739978">
        <ele>2.76</ele>
        <time>2019-11-10T10:35:39Z</time>
      </trkpt>
      <trkpt lat="51.16705734282732" lon="6.089774267747998">
        <ele>2.8</ele>
        <time>2019-11-10T10:35:51Z</time>
      </trkpt>
      <trkpt lat="51.167087266221642" lon="6.089714001864195">
        <ele>3.08</ele>
        <time>2019-11-10T10:36:18Z</time>
      </trkpt>
      <trkpt lat="51.167147448286414" lon="6.089500011876226">
        <ele>2.36</ele>
        <time>2019-11-10T10:36:31Z</time>
      </trkpt>
      <trkpt lat="51.167157841846347" lon="6.089444272220135">
        <ele>2.41</ele>
        <time>2019-11-10T10:36:34Z</time>
      </trkpt>
      <trkpt lat="51.167162200435996" lon="6.089418707415462">
        <ele>2.42</ele>
        <time>2019-11-10T10:36:35Z</time>
      </trkpt>
      <trkpt lat="51.167211988940835" lon="6.089199353009462">
        <ele>1.78</ele>
        <time>2019-11-10T10:36:46Z</time>
      </trkpt>
      <trkpt lat="51.167259765788913" lon="6.088645560666919">
        <ele>0.23</ele>
        <time>2019-11-10T10:37:03Z</time>
      </trkpt>
      <trkpt lat="51.167261861264706" lon="6.088242055848241">
        <ele>0.33</ele>
        <time>2019-11-10T10:37:12Z</time>
      </trkpt>
      <trkpt lat="51.167308380827308" lon="6.088085230439901">
        <ele>-0.39</ele>
        <time>2019-11-10T10:37:17Z</time>
      </trkpt>
      <trkpt lat="51.167320618405938" lon="6.088056145235896">
        <ele>-0.39</ele>
        <time>2019-11-10T10:37:18Z</time>
      </trkpt>
      <trkpt lat="51.167327323928475" lon="6.088017588481307">
        <ele>-0.38</ele>
        <time>2019-11-10T10:37:19Z</time>
      </trkpt>
      <trkpt lat="51.16734123788774" lon="6.087972829118371">
        <ele>-0.37</ele>
        <time>2019-11-10T10:37:20Z</time>
      </trkpt>
      <trkpt lat="51.167354732751846" lon="6.087932093068957">
        <ele>-0.35</ele>
        <time>2019-11-10T10:37:21Z</time>
      </trkpt>
      <trkpt lat="51.167360683903098" lon="6.087892781943083">
        <ele>-0.34</ele>
        <time>2019-11-10T10:37:22Z</time>
      </trkpt>
      <trkpt lat="51.167366970330477" lon="6.087858751416206">
        <ele>-0.35</ele>
        <time>2019-11-10T10:37:23Z</time>
      </trkpt>
      <trkpt lat="51.167417177930474" lon="6.087346533313394">
        <ele>-0.32</ele>
        <time>2019-11-10T10:37:36Z</time>
      </trkpt>
      <trkpt lat="51.167459841817617" lon="6.087090382352471">
        <ele>-0.35</ele>
        <time>2019-11-10T10:37:46Z</time>
      </trkpt>
      <trkpt lat="51.167517257854342" lon="6.086836326867342">
        <ele>-0.38</ele>
        <time>2019-11-10T10:37:58Z</time>
      </trkpt>
      <trkpt lat="51.167526477947831" lon="6.086424021050334">
        <ele>-0.42</ele>
        <time>2019-11-10T10:38:17Z</time>
      </trkpt>
      <trkpt lat="51.167552629485726" lon="6.086013475432992">
        <ele>-0.44</ele>
        <time>2019-11-10T10:38:35Z</time>
      </trkpt>
      <trkpt lat="51.167593030259013" lon="6.085530426353216">
        <ele>-0.54</ele>
        <time>2019-11-10T10:38:55Z</time>
      </trkpt>
      <trkpt lat="51.167651535943151" lon="6.085176542401314">
        <ele>1.67</ele>
        <time>2019-11-10T10:39:11Z</time>
      </trkpt>
      <trkpt lat="51.167664108797908" lon="6.084957690909505">
        <ele>1.56</ele>
        <time>2019-11-10T10:39:23Z</time>
      </trkpt>
      <trkpt lat="51.167437126860023" lon="6.084574637934566">
        <ele>2.28</ele>
        <time>2019-11-10T10:40:03Z</time>
      </trkpt>
      <trkpt lat="51.167355487123132" lon="6.084588970988989">
        <ele>0.03</ele>
        <time>2019-11-10T10:40:08Z</time>
      </trkpt>
      <trkpt lat="51.167301507666707" lon="6.084598861634731">
        <ele>0.03</ele>
        <time>2019-11-10T10:40:11Z</time>
      </trkpt>
      <trkpt lat="51.167131941765547" lon="6.084717465564609">
        <ele>0.16</ele>
        <time>2019-11-10T10:40:28Z</time>
      </trkpt>
      <trkpt lat="51.167017528787255" lon="6.085071265697479">
        <ele>0.32</ele>
        <time>2019-11-10T10:40:49Z</time>
      </trkpt>
      <trkpt lat="51.166883083060384" lon="6.085349209606648">
        <ele>-0.38</ele>
        <time>2019-11-10T10:41:04Z</time>
      </trkpt>
      <trkpt lat="51.16687310859561" lon="6.085366141051054">
        <ele>-0.37</ele>
        <time>2019-11-10T10:41:05Z</time>
      </trkpt>
      <trkpt lat="51.166861122474074" lon="6.085380390286446">
        <ele>-0.36</ele>
        <time>2019-11-10T10:41:06Z</time>
      </trkpt>
      <trkpt lat="51.166609581559896" lon="6.085576443001628">
        <ele>-0.22</ele>
        <time>2019-11-10T10:41:23Z</time>
      </trkpt>
      <trkpt lat="51.166394166648388" lon="6.085771908983588">
        <ele>-0.11</ele>
        <time>2019-11-10T10:41:40Z</time>
      </trkpt>
      <trkpt lat="51.166262738406658" lon="6.085929991677404">
        <ele>0.01</ele>
        <time>2019-11-10T10:41:54Z</time>
      </trkpt>
      <trkpt lat="51.166200125589967" lon="6.085855476558209">
        <ele>12.890000000000001</ele>
        <time>2019-11-10T11:02:25Z</time>
      </trkpt>
      <trkpt lat="51.166225103661418" lon="6.085753217339516">
        <ele>12.92</ele>
        <time>2019-11-10T11:02:31Z</time>
      </trkpt>
      <trkpt lat="51.166095267981291" lon="6.085449289530516">
        <ele>12.99</ele>
        <time>2019-11-10T11:02:49Z</time>
      </trkpt>
      <trkpt lat="51.165998708456755" lon="6.085279388353229">
        <ele>13.050000000000001</ele>
        <time>2019-11-10T11:03:01Z</time>
      </trkpt>
      <trkpt lat="51.165904412046075" lon="6.08505860902369">
        <ele>13.109999999999999</ele>
        <time>2019-11-10T11:03:16Z</time>
      </trkpt>
      <trkpt lat="51.165904495865107" lon="6.08501217328012">
        <ele>13.109999999999999</ele>
        <time>2019-11-10T11:03:18Z</time>
      </trkpt>
      <trkpt lat="51.165866106748581" lon="6.084774294868112">
        <ele>10.109999999999999</ele>
        <time>2019-11-10T11:03:30Z</time>
      </trkpt>
      <trkpt lat="51.165859820321202" lon="6.084677064791322">
        <ele>12.880000000000001</ele>
        <time>2019-11-10T11:03:34Z</time>
      </trkpt>
      <trkpt lat="51.165857138112187" lon="6.084657032042742">
        <ele>9.630000000000001</ele>
        <time>2019-11-10T11:03:35Z</time>
      </trkpt>
      <trkpt lat="51.165856048464775" lon="6.084639430046082">
        <ele>9.640000000000001</ele>
        <time>2019-11-10T11:03:36Z</time>
      </trkpt>
      <trkpt lat="51.165850516408682" lon="6.084599364548922">
        <ele>12.31</ele>
        <time>2019-11-10T11:03:38Z</time>
      </trkpt>
      <trkpt lat="51.165851689875126" lon="6.08458218164742">
        <ele>12.25</ele>
        <time>2019-11-10T11:03:39Z</time>
      </trkpt>
      <trkpt lat="51.165852528065443" lon="6.084558963775635">
        <ele>12.25</ele>
        <time>2019-11-10T11:03:40Z</time>
      </trkpt>
      <trkpt lat="51.165847666561604" lon="6.084535578265786">
        <ele>12.25</ele>
        <time>2019-11-10T11:03:41Z</time>
      </trkpt>
      <trkpt lat="51.165841547772288" lon="6.084461901336908">
        <ele>12.33</ele>
        <time>2019-11-10T11:03:44Z</time>
      </trkpt>
      <trkpt lat="51.165832076221704" lon="6.084425775334239">
        <ele>12.23</ele>
        <time>2019-11-10T11:03:46Z</time>
      </trkpt>
      <trkpt lat="51.165829645469785" lon="6.084406832233071">
        <ele>12.24</ele>
        <time>2019-11-10T11:03:47Z</time>
      </trkpt>
      <trkpt lat="51.165789663791656" lon="6.084166439250112">
        <ele>12.34</ele>
        <time>2019-11-10T11:03:57Z</time>
      </trkpt>
      <trkpt lat="51.165785891935229" lon="6.084142467007041">
        <ele>12.34</ele>
        <time>2019-11-10T11:03:58Z</time>
      </trkpt>
      <trkpt lat="51.165768960490823" lon="6.0838423948735">
        <ele>12.41</ele>
        <time>2019-11-10T11:04:11Z</time>
      </trkpt>
      <trkpt lat="51.165715232491493" lon="6.083688335493207">
        <ele>7.63</ele>
        <time>2019-11-10T11:04:20Z</time>
      </trkpt>
      <trkpt lat="51.165709532797337" lon="6.083676517009735">
        <ele>13.25</ele>
        <time>2019-11-10T11:04:21Z</time>
      </trkpt>
      <trkpt lat="51.165569806471467" lon="6.083490522578359">
        <ele>13.26</ele>
        <time>2019-11-10T11:04:35Z</time>
      </trkpt>
      <trkpt lat="51.16535103879869" lon="6.083335541188717">
        <ele>13.33</ele>
        <time>2019-11-10T11:04:54Z</time>
      </trkpt>
      <trkpt lat="51.165171330794692" lon="6.083208303898573">
        <ele>13.390000000000001</ele>
        <time>2019-11-10T11:05:08Z</time>
      </trkpt>
      <trkpt lat="51.165156662464142" lon="6.083191791549325">
        <ele>13.380000000000001</ele>
        <time>2019-11-10T11:05:09Z</time>
      </trkpt>
      <trkpt lat="51.165141658857465" lon="6.083178967237473">
        <ele>13.390000000000001</ele>
        <time>2019-11-10T11:05:10Z</time>
      </trkpt>
      <trkpt lat="51.165107879787683" lon="6.083156336098909">
        <ele>13.390000000000001</ele>
        <time>2019-11-10T11:05:12Z</time>
      </trkpt>
      <trkpt lat="51.165091702714562" lon="6.083146361634135">
        <ele>13.390000000000001</ele>
        <time>2019-11-10T11:05:13Z</time>
      </trkpt>
      <trkpt lat="51.165077369660139" lon="6.083137057721615">
        <ele>13.390000000000001</ele>
        <time>2019-11-10T11:05:14Z</time>
      </trkpt>
      <trkpt lat="51.165065467357635" lon="6.083121467381716">
        <ele>13.4</ele>
        <time>2019-11-10T11:05:15Z</time>
      </trkpt>
      <trkpt lat="51.165048032999039" lon="6.083112917840481">
        <ele>13.41</ele>
        <time>2019-11-10T11:05:16Z</time>
      </trkpt>
      <trkpt lat="51.165030682459474" lon="6.083100428804755">
        <ele>13.41</ele>
        <time>2019-11-10T11:05:17Z</time>
      </trkpt>
      <trkpt lat="51.165017858147621" lon="6.083086263388395">
        <ele>13.41</ele>
        <time>2019-11-10T11:05:18Z</time>
      </trkpt>
      <trkpt lat="51.164901852607727" lon="6.083022309467197">
        <ele>11.49</ele>
        <time>2019-11-10T11:05:25Z</time>
      </trkpt>
      <trkpt lat="51.164875365793705" lon="6.083009401336312">
        <ele>11.5</ele>
        <time>2019-11-10T11:05:27Z</time>
      </trkpt>
      <trkpt lat="51.16486438550055" lon="6.082996996119618">
        <ele>11.51</ele>
        <time>2019-11-10T11:05:28Z</time>
      </trkpt>
      <trkpt lat="51.164732370525599" lon="6.082836734130979">
        <ele>11.58</ele>
        <time>2019-11-10T11:05:40Z</time>
      </trkpt>
      <trkpt lat="51.164584597572684" lon="6.082609500735998">
        <ele>11.69</ele>
        <time>2019-11-10T11:05:54Z</time>
      </trkpt>
      <trkpt lat="51.16444755345583" lon="6.082416297867894">
        <ele>11.789999999999999</ele>
        <time>2019-11-10T11:06:08Z</time>
      </trkpt>
      <trkpt lat="51.164420647546649" lon="6.082384446635842">
        <ele>11.800000000000001</ele>
        <time>2019-11-10T11:06:11Z</time>
      </trkpt>
      <trkpt lat="51.164390053600073" lon="6.082293502986431">
        <ele>11.029999999999999</ele>
        <time>2019-11-10T11:06:26Z</time>
      </trkpt>
      <trkpt lat="51.164330877363682" lon="6.082034837454557">
        <ele>11.130000000000001</ele>
        <time>2019-11-10T11:06:41Z</time>
      </trkpt>
      <trkpt lat="51.16430145688355" lon="6.081956634297967">
        <ele>11.130000000000001</ele>
        <time>2019-11-10T11:06:45Z</time>
      </trkpt>
      <trkpt lat="51.164290476590395" lon="6.081927800551057">
        <ele>11.15</ele>
        <time>2019-11-10T11:06:46Z</time>
      </trkpt>
      <trkpt lat="51.164282094687223" lon="6.08190206810832">
        <ele>11.15</ele>
        <time>2019-11-10T11:06:47Z</time>
      </trkpt>
      <trkpt lat="51.164272706955671" lon="6.081875748932362">
        <ele>11.140000000000001</ele>
        <time>2019-11-10T11:06:48Z</time>
      </trkpt>
      <trkpt lat="51.164262648671865" lon="6.081852782517672">
        <ele>11.15</ele>
        <time>2019-11-10T11:06:49Z</time>
      </trkpt>
      <trkpt lat="51.164164580404758" lon="6.081668715924025">
        <ele>11.18</ele>
        <time>2019-11-10T11:06:59Z</time>
      </trkpt>
      <trkpt lat="51.164001971483231" lon="6.081532929092646">
        <ele>11.31</ele>
        <time>2019-11-10T11:07:13Z</time>
      </trkpt>
      <trkpt lat="51.163915386423469" lon="6.081454893574119">
        <ele>11.34</ele>
        <time>2019-11-10T11:07:21Z</time>
      </trkpt>
      <trkpt lat="51.163911111652851" lon="6.081432765349746">
        <ele>11.34</ele>
        <time>2019-11-10T11:07:22Z</time>
      </trkpt>
      <trkpt lat="51.163827544078231" lon="6.081266133114696">
        <ele>11.32</ele>
        <time>2019-11-10T11:07:32Z</time>
      </trkpt>
      <trkpt lat="51.163816228508949" lon="6.081254482269287">
        <ele>11.31</ele>
        <time>2019-11-10T11:07:33Z</time>
      </trkpt>
      <trkpt lat="51.163678765296936" lon="6.081133363768458">
        <ele>10.56</ele>
        <time>2019-11-10T11:07:44Z</time>
      </trkpt>
      <trkpt lat="51.1636633425951" lon="6.081104865297675">
        <ele>10.58</ele>
        <time>2019-11-10T11:07:46Z</time>
      </trkpt>
      <trkpt lat="51.163653451949358" lon="6.081088604405522">
        <ele>10.58</ele>
        <time>2019-11-10T11:07:47Z</time>
      </trkpt>
      <trkpt lat="51.163640292361379" lon="6.08106940984726">
        <ele>10.59</ele>
        <time>2019-11-10T11:07:48Z</time>
      </trkpt>
      <trkpt lat="51.163624869659543" lon="6.081045605242252">
        <ele>10.59</ele>
        <time>2019-11-10T11:07:49Z</time>
      </trkpt>
      <trkpt lat="51.163609446957707" lon="6.081011993810535">
        <ele>10.59</ele>
        <time>2019-11-10T11:07:50Z</time>
      </trkpt>
      <trkpt lat="51.163589833304286" lon="6.080976957455277">
        <ele>10.58</ele>
        <time>2019-11-10T11:07:51Z</time>
      </trkpt>
      <trkpt lat="51.163567705079913" lon="6.080950051546097">
        <ele>9.83</ele>
        <time>2019-11-10T11:07:52Z</time>
      </trkpt>
      <trkpt lat="51.163545157760382" lon="6.080927923321724">
        <ele>9.83</ele>
        <time>2019-11-10T11:07:53Z</time>
      </trkpt>
      <trkpt lat="51.163525879383087" lon="6.080910321325064">
        <ele>9.83</ele>
        <time>2019-11-10T11:07:54Z</time>
      </trkpt>
      <trkpt lat="51.163501488044858" lon="6.080885259434581">
        <ele>9.83</ele>
        <time>2019-11-10T11:07:55Z</time>
      </trkpt>
      <trkpt lat="51.163480700924993" lon="6.080859778448939">
        <ele>9.84</ele>
        <time>2019-11-10T11:07:56Z</time>
      </trkpt>
      <trkpt lat="51.163461171090603" lon="6.080833626911044">
        <ele>9.84</ele>
        <time>2019-11-10T11:07:57Z</time>
      </trkpt>
      <trkpt lat="51.163442060351372" lon="6.080803452059627">
        <ele>9.85</ele>
        <time>2019-11-10T11:07:58Z</time>
      </trkpt>
      <trkpt lat="51.163246929645538" lon="6.080502709373832">
        <ele>9.859999999999999</ele>
        <time>2019-11-10T11:08:10Z</time>
      </trkpt>
      <trkpt lat="51.163069987669587" lon="6.08019283041358">
        <ele>9.85</ele>
        <time>2019-11-10T11:08:20Z</time>
      </trkpt>
      <trkpt lat="51.162736974656582" lon="6.07983710244298">
        <ele>9.050000000000001</ele>
        <time>2019-11-10T11:08:31Z</time>
      </trkpt>
      <trkpt lat="51.162488115951419" lon="6.079530073329806">
        <ele>9.01</ele>
        <time>2019-11-10T11:08:41Z</time>
      </trkpt>
      <trkpt lat="51.162287872284651" lon="6.079148864373565">
        <ele>8.99</ele>
        <time>2019-11-10T11:08:50Z</time>
      </trkpt>
      <trkpt lat="51.16217840462923" lon="6.078908303752542">
        <ele>11.34</ele>
        <time>2019-11-10T11:08:55Z</time>
      </trkpt>
      <trkpt lat="51.16189593449235" lon="6.078443611040711">
        <ele>12.01</ele>
        <time>2019-11-10T11:09:06Z</time>
      </trkpt>
      <trkpt lat="51.161837847903371" lon="6.078383680433035">
        <ele>12.01</ele>
        <time>2019-11-10T11:09:09Z</time>
      </trkpt>
      <trkpt lat="51.161828376352787" lon="6.078363480046392">
        <ele>12.01</ele>
        <time>2019-11-10T11:09:10Z</time>
      </trkpt>
      <trkpt lat="51.161832148209214" lon="6.078349901363254">
        <ele>12.01</ele>
        <time>2019-11-10T11:09:11Z</time>
      </trkpt>
      <trkpt lat="51.161823850125074" lon="6.078336155042052">
        <ele>11.99</ele>
        <time>2019-11-10T11:09:12Z</time>
      </trkpt>
      <trkpt lat="51.161819491535425" lon="6.07832282781601">
        <ele>12</ele>
        <time>2019-11-10T11:09:13Z</time>
      </trkpt>
      <trkpt lat="51.161811361089349" lon="6.078308075666428">
        <ele>11.99</ele>
        <time>2019-11-10T11:09:14Z</time>
      </trkpt>
      <trkpt lat="51.161741204559803" lon="6.078229621052742">
        <ele>11.970000000000001</ele>
        <time>2019-11-10T11:09:20Z</time>
      </trkpt>
      <trkpt lat="51.161724608391523" lon="6.078224256634712">
        <ele>11.970000000000001</ele>
        <time>2019-11-10T11:09:21Z</time>
      </trkpt>
      <trkpt lat="51.161621008068323" lon="6.078223418444395">
        <ele>11.970000000000001</ele>
        <time>2019-11-10T11:09:28Z</time>
      </trkpt>
      <trkpt lat="51.161607764661312" lon="6.078221406787634">
        <ele>11.960000000000001</ele>
        <time>2019-11-10T11:09:29Z</time>
      </trkpt>
      <trkpt lat="51.161594102159142" lon="6.078223418444395">
        <ele>11.960000000000001</ele>
        <time>2019-11-10T11:09:30Z</time>
      </trkpt>
      <trkpt lat="51.161571303382516" lon="6.078223921358585">
        <ele>11.98</ele>
        <time>2019-11-10T11:09:31Z</time>
      </trkpt>
      <trkpt lat="51.161562334746122" lon="6.078210342675448">
        <ele>11.98</ele>
        <time>2019-11-10T11:09:32Z</time>
      </trkpt>
      <trkpt lat="51.161547414958477" lon="6.078210426494479">
        <ele>11.99</ele>
        <time>2019-11-10T11:09:33Z</time>
      </trkpt>
      <trkpt lat="51.161534758284688" lon="6.078212354332209">
        <ele>12</ele>
        <time>2019-11-10T11:09:34Z</time>
      </trkpt>
      <trkpt lat="51.161521598696709" lon="6.078209672123194">
        <ele>12</ele>
        <time>2019-11-10T11:09:35Z</time>
      </trkpt>
      <trkpt lat="51.161488406360149" lon="6.078221155330539">
        <ele>12</ele>
        <time>2019-11-10T11:09:39Z</time>
      </trkpt>
      <trkpt lat="51.161442557349801" lon="6.078448137268424">
        <ele>12.08</ele>
        <time>2019-11-10T11:09:50Z</time>
      </trkpt>
      <trkpt lat="51.161217587068677" lon="6.078796572983265">
        <ele>12.09</ele>
        <time>2019-11-10T11:10:05Z</time>
      </trkpt>
      <trkpt lat="51.160882730036974" lon="6.079283058643341">
        <ele>12.1</ele>
        <time>2019-11-10T11:10:19Z</time>
      </trkpt>
      <trkpt lat="51.16063185967505" lon="6.079670805484057">
        <ele>12.23</ele>
        <time>2019-11-10T11:10:29Z</time>
      </trkpt>
      <trkpt lat="51.160388700664043" lon="6.079966016113758">
        <ele>13.1</ele>
        <time>2019-11-10T11:10:39Z</time>
      </trkpt>
      <trkpt lat="51.160078570246696" lon="6.080456525087357">
        <ele>13.029999999999999</ele>
        <time>2019-11-10T11:10:51Z</time>
      </trkpt>
      <trkpt lat="51.159801715984941" lon="6.080833459272981">
        <ele>13.09</ele>
        <time>2019-11-10T11:11:01Z</time>
      </trkpt>
      <trkpt lat="51.159589234739542" lon="6.081122132018209">
        <ele>12.970000000000001</ele>
        <time>2019-11-10T11:11:17Z</time>
      </trkpt>
      <trkpt lat="51.159386560320854" lon="6.081306366249919">
        <ele>13.06</ele>
        <time>2019-11-10T11:11:32Z</time>
      </trkpt>
      <trkpt lat="51.159167289733887" lon="6.081669302657247">
        <ele>12.960000000000001</ele>
        <time>2019-11-10T11:11:51Z</time>
      </trkpt>
      <trkpt lat="51.158937709406018" lon="6.081971218809485">
        <ele>12.859999999999999</ele>
        <time>2019-11-10T11:12:08Z</time>
      </trkpt>
      <trkpt lat="51.158658424392343" lon="6.082214964553714">
        <ele>12.800000000000001</ele>
        <time>2019-11-10T11:12:26Z</time>
      </trkpt>
      <trkpt lat="51.158602684736252" lon="6.082272548228502">
        <ele>12.77</ele>
        <time>2019-11-10T11:12:32Z</time>
      </trkpt>
      <trkpt lat="51.158552309498191" lon="6.082329712808132">
        <ele>12.75</ele>
        <time>2019-11-10T11:12:35Z</time>
      </trkpt>
      <trkpt lat="51.158383078873158" lon="6.08253582380712">
        <ele>12.699999999999999</ele>
        <time>2019-11-10T11:12:49Z</time>
      </trkpt>
      <trkpt lat="51.158369416370988" lon="6.082543535158038">
        <ele>12.699999999999999</ele>
        <time>2019-11-10T11:12:50Z</time>
      </trkpt>
      <trkpt lat="51.158360196277499" lon="6.082550492137671">
        <ele>12.699999999999999</ele>
        <time>2019-11-10T11:12:51Z</time>
      </trkpt>
      <trkpt lat="51.158348964527249" lon="6.082549821585417">
        <ele>12.710000000000001</ele>
        <time>2019-11-10T11:12:52Z</time>
      </trkpt>
      <trkpt lat="51.158335972577333" lon="6.082546468824148">
        <ele>12.699999999999999</ele>
        <time>2019-11-10T11:12:53Z</time>
      </trkpt>
      <trkpt lat="51.158297583460808" lon="6.082487879320979">
        <ele>12.699999999999999</ele>
        <time>2019-11-10T11:12:59Z</time>
      </trkpt>
      <trkpt lat="51.158051742240787" lon="6.082169618457556">
        <ele>12.720000000000001</ele>
        <time>2019-11-10T11:13:10Z</time>
      </trkpt>
      <trkpt lat="51.157788382843137" lon="6.081852111965418">
        <ele>12.74</ele>
        <time>2019-11-10T11:13:19Z</time>
      </trkpt>
      <trkpt lat="51.15751932375133" lon="6.081526055932045">
        <ele>12.73</ele>
        <time>2019-11-10T11:13:28Z</time>
      </trkpt>
      <trkpt lat="51.157360319048166" lon="6.081350035965443">
        <ele>12.69</ele>
        <time>2019-11-10T11:13:38Z</time>
      </trkpt>
      <trkpt lat="51.157253365963697" lon="6.081305025145412">
        <ele>12.710000000000001</ele>
        <time>2019-11-10T11:13:47Z</time>
      </trkpt>
      <trkpt lat="51.157135851681232" lon="6.081386329606175">
        <ele>12.789999999999999</ele>
        <time>2019-11-10T11:14:01Z</time>
      </trkpt>
      <trkpt lat="51.157014397904277" lon="6.081515494734049">
        <ele>12.869999999999999</ele>
        <time>2019-11-10T11:14:13Z</time>
      </trkpt>
      <trkpt lat="51.156892441213131" lon="6.08173199929297">
        <ele>12.9</ele>
        <time>2019-11-10T11:14:27Z</time>
      </trkpt>
      <trkpt lat="51.156695550307631" lon="6.082064844667912">
        <ele>13.01</ele>
        <time>2019-11-10T11:14:45Z</time>
      </trkpt>
      <trkpt lat="51.156624052673578" lon="6.082228627055883">
        <ele>10.31</ele>
        <time>2019-11-10T11:14:54Z</time>
      </trkpt>
      <trkpt lat="51.156437639147043" lon="6.082523837685585">
        <ele>10.35</ele>
        <time>2019-11-10T11:15:10Z</time>
      </trkpt>
      <trkpt lat="51.156256925314665" lon="6.082772277295589">
        <ele>10.41</ele>
        <time>2019-11-10T11:15:25Z</time>
      </trkpt>
      <trkpt lat="51.156215099617839" lon="6.083064051344991">
        <ele>10.44</ele>
        <time>2019-11-10T11:15:40Z</time>
      </trkpt>
      <trkpt lat="51.156241921707988" lon="6.083318023011088">
        <ele>10.49</ele>
        <time>2019-11-10T11:15:56Z</time>
      </trkpt>
      <trkpt lat="51.156172351911664" lon="6.083617340773344">
        <ele>10.5</ele>
        <time>2019-11-10T11:16:08Z</time>
      </trkpt>
      <trkpt lat="51.156129939481616" lon="6.083750613033772">
        <ele>10.5</ele>
        <time>2019-11-10T11:16:14Z</time>
      </trkpt>
      <trkpt lat="51.156113846227527" lon="6.083821523934603">
        <ele>10.5</ele>
        <time>2019-11-10T11:16:17Z</time>
      </trkpt>
      <trkpt lat="51.156109152361751" lon="6.083840802311897">
        <ele>10.49</ele>
        <time>2019-11-10T11:16:18Z</time>
      </trkpt>
      <trkpt lat="51.156075121834874" lon="6.084132324904203">
        <ele>10.5</ele>
        <time>2019-11-10T11:16:33Z</time>
      </trkpt>
      <trkpt lat="51.155983759090304" lon="6.084354864433408">
        <ele>10.529999999999999</ele>
        <time>2019-11-10T11:16:46Z</time>
      </trkpt>
      <trkpt lat="51.155931958928704" lon="6.084595005959272">
        <ele>10.57</ele>
        <time>2019-11-10T11:16:58Z</time>
      </trkpt>
      <trkpt lat="51.155797010287642" lon="6.084597185254097">
        <ele>16</ele>
        <time>2019-11-10T12:43:49Z</time>
      </trkpt>
      <trkpt lat="51.155950147658587" lon="6.084647811949253">
        <ele>24.260000000000002</ele>
        <time>2019-11-10T12:43:50Z</time>
      </trkpt>
      <trkpt lat="51.155948722735047" lon="6.084644878283143">
        <ele>24.239999999999998</ele>
        <time>2019-11-10T12:43:51Z</time>
      </trkpt>
      <trkpt lat="51.15594738163054" lon="6.084653008729219">
        <ele>21.800000000000001</ele>
        <time>2019-11-10T12:43:54Z</time>
      </trkpt>
      <trkpt lat="51.155842859297991" lon="6.084737246856093">
        <ele>21.710000000000001</ele>
        <time>2019-11-10T12:44:15Z</time>
      </trkpt>
      <trkpt lat="51.155783096328378" lon="6.084747221320868">
        <ele>21.780000000000001</ele>
        <time>2019-11-10T12:44:30Z</time>
      </trkpt>
      <trkpt lat="51.155777983367443" lon="6.084785023704171">
        <ele>21.789999999999999</ele>
        <time>2019-11-10T12:44:43Z</time>
      </trkpt>
      <trkpt lat="51.155787957832217" lon="6.08473657630384">
        <ele>21.780000000000001</ele>
        <time>2019-11-10T12:45:01Z</time>
      </trkpt>
      <trkpt lat="51.155821988359094" lon="6.084774965420365">
        <ele>21.82</ele>
        <time>2019-11-10T12:45:17Z</time>
      </trkpt>
      <trkpt lat="51.155824838206172" lon="6.084791142493486">
        <ele>21.82</ele>
        <time>2019-11-10T12:45:18Z</time>
      </trkpt>
      <trkpt lat="51.155735403299332" lon="6.085069924592972">
        <ele>21.760000000000002</ele>
        <time>2019-11-10T12:45:35Z</time>
      </trkpt>
      <trkpt lat="51.155627528205514" lon="6.085360189899802">
        <ele>21.82</ele>
        <time>2019-11-10T12:45:51Z</time>
      </trkpt>
      <trkpt lat="51.155615206807852" lon="6.085401680320501">
        <ele>16.579999999999998</ele>
        <time>2019-11-10T12:45:53Z</time>
      </trkpt>
      <trkpt lat="51.155609423294663" lon="6.085422970354557">
        <ele>26.219999999999999</ele>
        <time>2019-11-10T12:45:54Z</time>
      </trkpt>
      <trkpt lat="51.155604226514697" lon="6.085441997274756">
        <ele>13.91</ele>
        <time>2019-11-10T12:45:55Z</time>
      </trkpt>
      <trkpt lat="51.15559802390635" lon="6.085462868213654">
        <ele>22.84</ele>
        <time>2019-11-10T12:45:56Z</time>
      </trkpt>
      <trkpt lat="51.155486712232232" lon="6.085804095491767">
        <ele>22.82</ele>
        <time>2019-11-10T12:46:12Z</time>
      </trkpt>
      <trkpt lat="51.155358720570803" lon="6.086206259205937">
        <ele>22.859999999999999</ele>
        <time>2019-11-10T12:46:32Z</time>
      </trkpt>
      <trkpt lat="51.155277835205197" lon="6.086423434317112">
        <ele>22.890000000000001</ele>
        <time>2019-11-10T12:46:45Z</time>
      </trkpt>
      <trkpt lat="51.155161075294018" lon="6.086794920265675">
        <ele>22.93</ele>
        <time>2019-11-10T12:47:04Z</time>
      </trkpt>
      <trkpt lat="51.155069461092353" lon="6.087199011817575">
        <ele>22.93</ele>
        <time>2019-11-10T12:47:24Z</time>
      </trkpt>
      <trkpt lat="51.154944151639938" lon="6.0876380559057">
        <ele>22.989999999999998</ele>
        <time>2019-11-10T12:47:45Z</time>
      </trkpt>
      <trkpt lat="51.154895201325417" lon="6.087898313999176">
        <ele>23</ele>
        <time>2019-11-10T12:47:59Z</time>
      </trkpt>
      <trkpt lat="51.155021348968148" lon="6.088215820491314">
        <ele>23.010000000000002</ele>
        <time>2019-11-10T12:48:15Z</time>
      </trkpt>
      <trkpt lat="51.155181443318725" lon="6.088573141023517">
        <ele>23.010000000000002</ele>
        <time>2019-11-10T12:48:34Z</time>
      </trkpt>
      <trkpt lat="51.155322259292006" lon="6.088883774355054">
        <ele>23.050000000000001</ele>
        <time>2019-11-10T12:48:50Z</time>
      </trkpt>
      <trkpt lat="51.155496016144753" lon="6.089297086000443">
        <ele>23</ele>
        <time>2019-11-10T12:49:11Z</time>
      </trkpt>
      <trkpt lat="51.155700366944075" lon="6.089782314375043">
        <ele>24</ele>
        <time>2019-11-10T12:49:36Z</time>
      </trkpt>
      <trkpt lat="51.155718304216862" lon="6.089819865301251">
        <ele>20.719999999999999</ele>
        <time>2019-11-10T12:49:38Z</time>
      </trkpt>
      <trkpt lat="51.155901616439223" lon="6.090237116441131">
        <ele>23.219999999999999</ele>
        <time>2019-11-10T12:50:00Z</time>
      </trkpt>
      <trkpt lat="51.156097501516342" lon="6.0906738974154">
        <ele>23.260000000000002</ele>
        <time>2019-11-10T12:50:23Z</time>
      </trkpt>
      <trkpt lat="51.156268659979105" lon="6.091046640649438">
        <ele>23.260000000000002</ele>
        <time>2019-11-10T12:50:43Z</time>
      </trkpt>
      <trkpt lat="51.156435459852219" lon="6.091414354741573">
        <ele>20.780000000000001</ele>
        <time>2019-11-10T12:51:02Z</time>
      </trkpt>
      <trkpt lat="51.156469238922" lon="6.091489205136895">
        <ele>23.510000000000002</ele>
        <time>2019-11-10T12:51:06Z</time>
      </trkpt>
      <trkpt lat="51.156556829810143" lon="6.091685593128204">
        <ele>20.66</ele>
        <time>2019-11-10T12:51:17Z</time>
      </trkpt>
      <trkpt lat="51.156591698527336" lon="6.091762287542224">
        <ele>23.190000000000001</ele>
        <time>2019-11-10T12:51:21Z</time>
      </trkpt>
      <trkpt lat="51.15678733214736" lon="6.092217257246375">
        <ele>23.27</ele>
        <time>2019-11-10T12:51:44Z</time>
      </trkpt>
      <trkpt lat="51.156940553337336" lon="6.09256636351347">
        <ele>24.41</ele>
        <time>2019-11-10T12:52:02Z</time>
      </trkpt>
      <trkpt lat="51.156969303265214" lon="6.092645991593599">
        <ele>22.07</ele>
        <time>2019-11-10T12:52:06Z</time>
      </trkpt>
      <trkpt lat="51.157107437029481" lon="6.092977663502097">
        <ele>22.09</ele>
        <time>2019-11-10T12:52:22Z</time>
      </trkpt>
      <trkpt lat="51.157259484753013" lon="6.093344707041979">
        <ele>22.100000000000001</ele>
        <time>2019-11-10T12:52:39Z</time>
      </trkpt>
      <trkpt lat="51.157425027340651" lon="6.093818284571171">
        <ele>22.109999999999999</ele>
        <time>2019-11-10T12:52:52Z</time>
      </trkpt>
      <trkpt lat="51.157598281279206" lon="6.094270739704371">
        <ele>22.059999999999999</ele>
        <time>2019-11-10T12:53:04Z</time>
      </trkpt>
      <trkpt lat="51.157646225765347" lon="6.094346344470978">
        <ele>22.039999999999999</ele>
        <time>2019-11-10T12:53:06Z</time>
      </trkpt>
      <trkpt lat="51.157652009278536" lon="6.094382219016552">
        <ele>22.039999999999999</ele>
        <time>2019-11-10T12:53:07Z</time>
      </trkpt>
      <trkpt lat="51.15765075199306" lon="6.094422703608871">
        <ele>22.030000000000001</ele>
        <time>2019-11-10T12:53:08Z</time>
      </trkpt>
      <trkpt lat="51.157643375918269" lon="6.094452040269971">
        <ele>24.489999999999998</ele>
        <time>2019-11-10T12:53:09Z</time>
      </trkpt>
      <trkpt lat="51.157638011500239" lon="6.094483472406864">
        <ele>24.48</ele>
        <time>2019-11-10T12:53:10Z</time>
      </trkpt>
      <trkpt lat="51.157636921852827" lon="6.094511048868299">
        <ele>24.48</ele>
        <time>2019-11-10T12:53:11Z</time>
      </trkpt>
      <trkpt lat="51.157638933509588" lon="6.094547677785158">
        <ele>24.469999999999999</ele>
        <time>2019-11-10T12:53:12Z</time>
      </trkpt>
      <trkpt lat="51.157639687880874" lon="6.094579696655273">
        <ele>24.460000000000001</ele>
        <time>2019-11-10T12:53:13Z</time>
      </trkpt>
      <trkpt lat="51.157709844410419" lon="6.094997366890311">
        <ele>24.350000000000001</ele>
        <time>2019-11-10T12:53:23Z</time>
      </trkpt>
      <trkpt lat="51.157709928229451" lon="6.095044389367104">
        <ele>25.149999999999999</ele>
        <time>2019-11-10T12:53:24Z</time>
      </trkpt>
      <trkpt lat="51.157704731449485" lon="6.095086298882961">
        <ele>25.140000000000001</ele>
        <time>2019-11-10T12:53:25Z</time>
      </trkpt>
      <trkpt lat="51.157514294609427" lon="6.095749642699957">
        <ele>25.010000000000002</ele>
        <time>2019-11-10T12:53:39Z</time>
      </trkpt>
      <trkpt lat="51.157237272709608" lon="6.096231518313289">
        <ele>24.920000000000002</ele>
        <time>2019-11-10T12:53:53Z</time>
      </trkpt>
      <trkpt lat="51.157023198902607" lon="6.096759494394064">
        <ele>25.920000000000002</ele>
        <time>2019-11-10T12:54:06Z</time>
      </trkpt>
      <trkpt lat="51.156811639666557" lon="6.09715118072927">
        <ele>25.879999999999999</ele>
        <time>2019-11-10T12:54:17Z</time>
      </trkpt>
      <trkpt lat="51.156523888930678" lon="6.097344132140279">
        <ele>25.829999999999998</ele>
        <time>2019-11-10T12:54:27Z</time>
      </trkpt>
      <trkpt lat="51.156062297523022" lon="6.097613861784339">
        <ele>25.780000000000001</ele>
        <time>2019-11-10T12:54:41Z</time>
      </trkpt>
      <trkpt lat="51.155541362240911" lon="6.098036477342248">
        <ele>26.620000000000001</ele>
        <time>2019-11-10T12:54:58Z</time>
      </trkpt>
      <trkpt lat="51.155236260965466" lon="6.098387762904167">
        <ele>26.609999999999999</ele>
        <time>2019-11-10T12:55:13Z</time>
      </trkpt>
      <trkpt lat="51.155313039198518" lon="6.098604602739215">
        <ele>25.140000000000001</ele>
        <time>2019-11-10T12:55:24Z</time>
      </trkpt>
      <trkpt lat="51.155320666730404" lon="6.098623126745224">
        <ele>30.18</ele>
        <time>2019-11-10T12:55:25Z</time>
      </trkpt>
      <trkpt lat="51.155328461900353" lon="6.098641902208328">
        <ele>27.699999999999999</ele>
        <time>2019-11-10T12:55:26Z</time>
      </trkpt>
      <trkpt lat="51.155496770516038" lon="6.099035097286105">
        <ele>24.699999999999999</ele>
        <time>2019-11-10T12:55:47Z</time>
      </trkpt>
      <trkpt lat="51.155691901221871" lon="6.099487468600273">
        <ele>27.699999999999999</ele>
        <time>2019-11-10T12:56:11Z</time>
      </trkpt>
      <trkpt lat="51.155814277008176" lon="6.099781338125467">
        <ele>27.710000000000001</ele>
        <time>2019-11-10T12:56:26Z</time>
      </trkpt>
      <trkpt lat="51.155940592288971" lon="6.100073028355837">
        <ele>27.710000000000001</ele>
        <time>2019-11-10T12:56:41Z</time>
      </trkpt>
      <trkpt lat="51.155978813767433" lon="6.100172521546483">
        <ele>27.73</ele>
        <time>2019-11-10T12:56:47Z</time>
      </trkpt>
      <trkpt lat="51.155983339995146" lon="6.100189285352826">
        <ele>27.719999999999999</ele>
        <time>2019-11-10T12:56:48Z</time>
      </trkpt>
      <trkpt lat="51.155986860394478" lon="6.100207222625613">
        <ele>27.739999999999998</ele>
        <time>2019-11-10T12:56:49Z</time>
      </trkpt>
      <trkpt lat="51.155990632250905" lon="6.100224908441305">
        <ele>27.719999999999999</ele>
        <time>2019-11-10T12:56:50Z</time>
      </trkpt>
      <trkpt lat="51.155993230640888" lon="6.100244019180536">
        <ele>27.719999999999999</ele>
        <time>2019-11-10T12:56:51Z</time>
      </trkpt>
      <trkpt lat="51.156002366915345" lon="6.100274864584208">
        <ele>27.719999999999999</ele>
        <time>2019-11-10T12:56:53Z</time>
      </trkpt>
      <trkpt lat="51.156007647514343" lon="6.100290790200234">
        <ele>27.710000000000001</ele>
        <time>2019-11-10T12:56:54Z</time>
      </trkpt>
      <trkpt lat="51.15608518011868" lon="6.100508300587535">
        <ele>27.670000000000002</ele>
        <time>2019-11-10T12:57:07Z</time>
      </trkpt>
      <trkpt lat="51.156181488186121" lon="6.100770402699709">
        <ele>28.559999999999999</ele>
        <time>2019-11-10T12:57:21Z</time>
      </trkpt>
      <trkpt lat="51.156268324702978" lon="6.10103627666831">
        <ele>28.489999999999998</ele>
        <time>2019-11-10T12:57:35Z</time>
      </trkpt>
      <trkpt lat="51.156400674954057" lon="6.101321596652269">
        <ele>29.16</ele>
        <time>2019-11-10T12:57:50Z</time>
      </trkpt>
      <trkpt lat="51.15651860833168" lon="6.101579004898667">
        <ele>29.079999999999998</ele>
        <time>2019-11-10T12:58:05Z</time>
      </trkpt>
      <trkpt lat="51.156529169529676" lon="6.101600294932723">
        <ele>29.079999999999998</ele>
        <time>2019-11-10T12:58:06Z</time>
      </trkpt>
      <trkpt lat="51.156596811488271" lon="6.101803136989474">
        <ele>29.030000000000001</ele>
        <time>2019-11-10T12:58:15Z</time>
      </trkpt>
      <trkpt lat="51.156711392104626" lon="6.101992735639215">
        <ele>30.420000000000002</ele>
        <time>2019-11-10T12:58:24Z</time>
      </trkpt>
      <trkpt lat="51.156780878081918" lon="6.102120559662581">
        <ele>30.379999999999999</ele>
        <time>2019-11-10T12:58:30Z</time>
      </trkpt>
      <trkpt lat="51.15679269656539" lon="6.102143358439207">
        <ele>30.370000000000001</ele>
        <time>2019-11-10T12:58:31Z</time>
      </trkpt>
      <trkpt lat="51.156801329925656" lon="6.102163977921009">
        <ele>30.359999999999999</ele>
        <time>2019-11-10T12:58:32Z</time>
      </trkpt>
      <trkpt lat="51.156806945800781" lon="6.102185184136033">
        <ele>30.350000000000001</ele>
        <time>2019-11-10T12:58:33Z</time>
      </trkpt>
      <trkpt lat="51.156814154237509" lon="6.102205971255899">
        <ele>30.329999999999998</ele>
        <time>2019-11-10T12:58:34Z</time>
      </trkpt>
      <trkpt lat="51.156822117045522" lon="6.102221896871924">
        <ele>30.309999999999999</ele>
        <time>2019-11-10T12:58:35Z</time>
      </trkpt>
      <trkpt lat="51.156871989369392" lon="6.102329269051552">
        <ele>27.199999999999999</ele>
        <time>2019-11-10T12:58:43Z</time>
      </trkpt>
      <trkpt lat="51.156876431778073" lon="6.102339159697294">
        <ele>30.890000000000001</ele>
        <time>2019-11-10T12:58:44Z</time>
      </trkpt>
      <trkpt lat="51.156895207241178" lon="6.102356677874923">
        <ele>30.899999999999999</ele>
        <time>2019-11-10T12:58:45Z</time>
      </trkpt>
      <trkpt lat="51.15691289305687" lon="6.102398755028844">
        <ele>30.870000000000001</ele>
        <time>2019-11-10T12:58:47Z</time>
      </trkpt>
      <trkpt lat="51.156919430941343" lon="6.102421302348375">
        <ele>30.829999999999998</ele>
        <time>2019-11-10T12:58:48Z</time>
      </trkpt>
      <trkpt lat="51.157105173915625" lon="6.102731768041849">
        <ele>30.649999999999999</ele>
        <time>2019-11-10T12:59:06Z</time>
      </trkpt>
      <trkpt lat="51.157270800322294" lon="6.103081963956356">
        <ele>31.199999999999999</ele>
        <time>2019-11-10T12:59:24Z</time>
      </trkpt>
      <trkpt lat="51.157288234680891" lon="6.103116665035486">
        <ele>32.520000000000003</ele>
        <time>2019-11-10T12:59:26Z</time>
      </trkpt>
      <trkpt lat="51.157415136694908" lon="6.10347599722445">
        <ele>32.240000000000002</ele>
        <time>2019-11-10T12:59:45Z</time>
      </trkpt>
      <trkpt lat="51.157550504431129" lon="6.103734662756324">
        <ele>32.729999999999997</ele>
        <time>2019-11-10T13:00:02Z</time>
      </trkpt>
      <trkpt lat="51.157718058675528" lon="6.10402861610055">
        <ele>33.219999999999999</ele>
        <time>2019-11-10T13:00:22Z</time>
      </trkpt>
      <trkpt lat="51.157879997044802" lon="6.104374704882503">
        <ele>34.490000000000002</ele>
        <time>2019-11-10T13:00:41Z</time>
      </trkpt>
      <trkpt lat="51.157935820519924" lon="6.10474937595427">
        <ele>35.020000000000003</ele>
        <time>2019-11-10T13:00:55Z</time>
      </trkpt>
      <trkpt lat="51.15788041613996" lon="6.104942495003343">
        <ele>34.799999999999997</ele>
        <time>2019-11-10T13:01:08Z</time>
      </trkpt>
      <trkpt lat="51.157826939597726" lon="6.105008125305176">
        <ele>32.299999999999997</ele>
        <time>2019-11-10T13:01:13Z</time>
      </trkpt>
      <trkpt lat="51.156777776777744" lon="6.10588101670146">
        <ele>31.960000000000001</ele>
        <time>2019-11-10T13:02:38Z</time>
      </trkpt>
      <trkpt lat="51.156285591423512" lon="6.106307990849018">
        <ele>29.739999999999998</ele>
        <time>2019-11-10T13:03:16Z</time>
      </trkpt>
      <trkpt lat="51.156045366078615" lon="6.106453081592917">
        <ele>28.510000000000002</ele>
        <time>2019-11-10T13:03:33Z</time>
      </trkpt>
      <trkpt lat="51.155611015856266" lon="6.106847869232297">
        <ele>27.82</ele>
        <time>2019-11-10T13:04:10Z</time>
      </trkpt>
      <trkpt lat="51.155092846602201" lon="6.107253134250641">
        <ele>27.170000000000002</ele>
        <time>2019-11-10T13:04:45Z</time>
      </trkpt>
      <trkpt lat="51.155001232400537" lon="6.107283476740122">
        <ele>28.710000000000001</ele>
        <time>2019-11-10T13:04:49Z</time>
      </trkpt>
      <trkpt lat="51.15501849912107" lon="6.107305102050304">
        <ele>28.670000000000002</ele>
        <time>2019-11-10T13:04:50Z</time>
      </trkpt>
      <trkpt lat="51.154637457802892" lon="6.10741289332509">
        <ele>28.390000000000001</ele>
        <time>2019-11-10T13:05:06Z</time>
      </trkpt>
      <trkpt lat="51.154192797839642" lon="6.107563935220242">
        <ele>28.109999999999999</ele>
        <time>2019-11-10T13:05:26Z</time>
      </trkpt>
      <trkpt lat="51.153775043785572" lon="6.107844393700361">
        <ele>24.57</ele>
        <time>2019-11-10T13:06:07Z</time>
      </trkpt>
      <trkpt lat="51.153485281392932" lon="6.108149159699678">
        <ele>23.960000000000001</ele>
        <time>2019-11-10T13:06:40Z</time>
      </trkpt>
      <trkpt lat="51.153483269736171" lon="6.108215879648924">
        <ele>23.98</ele>
        <time>2019-11-10T13:06:43Z</time>
      </trkpt>
      <trkpt lat="51.152656646445394" lon="6.107175601646304">
        <ele>23.949999999999999</ele>
        <time>2019-11-10T13:06:48Z</time>
      </trkpt>
      <trkpt lat="51.15180772729218" lon="6.107477685436606">
        <ele>23.960000000000001</ele>
        <time>2019-11-10T13:07:03Z</time>
      </trkpt>
      <trkpt lat="51.15094531327486" lon="6.107132434844971">
        <ele>32.890000000000001</ele>
        <time>2019-11-10T13:08:43Z</time>
      </trkpt>
      <trkpt lat="51.148614222183824" lon="6.109203603118658">
        <ele>32.899999999999999</ele>
        <time>2019-11-10T13:08:44Z</time>
      </trkpt>
      <trkpt lat="51.150338966399431" lon="6.114208940416575">
        <ele>34.079999999999998</ele>
        <time>2019-11-10T13:09:05Z</time>
      </trkpt>
      <trkpt lat="51.150029087439179" lon="6.114575732499361">
        <ele>34.020000000000003</ele>
        <time>2019-11-10T13:09:18Z</time>
      </trkpt>
      <trkpt lat="51.150810616090894" lon="6.117186276242137">
        <ele>33.990000000000002</ele>
        <time>2019-11-10T13:09:29Z</time>
      </trkpt>
      <trkpt lat="51.151578649878502" lon="6.119516361504793">
        <ele>33.990000000000002</ele>
        <time>2019-11-10T13:09:30Z</time>
      </trkpt>
      <trkpt lat="51.15136306732893" lon="6.119710570201278">
        <ele>33.960000000000001</ele>
        <time>2019-11-10T13:09:31Z</time>
      </trkpt>
      <trkpt lat="51.150324046611786" lon="6.120543060824275">
        <ele>28.579999999999998</ele>
        <time>2019-11-10T13:15:01Z</time>
      </trkpt>
      <trkpt lat="51.15241264924407" lon="6.126066232100129">
        <ele>28.48</ele>
        <time>2019-11-10T13:15:05Z</time>
      </trkpt>
      <trkpt lat="51.152250962331891" lon="6.127123357728124">
        <ele>26.149999999999999</ele>
        <time>2019-11-10T13:15:11Z</time>
      </trkpt>
      <trkpt lat="51.152075780555606" lon="6.12842733040452">
        <ele>26.190000000000001</ele>
        <time>2019-11-10T13:15:12Z</time>
      </trkpt>
      <trkpt lat="51.152237467467785" lon="6.129139373078942">
        <ele>25.100000000000001</ele>
        <time>2019-11-10T13:15:19Z</time>
      </trkpt>
      <trkpt lat="51.152520440518856" lon="6.129355123266578">
        <ele>25.300000000000001</ele>
        <time>2019-11-10T13:15:45Z</time>
      </trkpt>
      <trkpt lat="51.152345258742571" lon="6.129743456840515">
        <ele>28.93</ele>
        <time>2019-11-10T13:16:34Z</time>
      </trkpt>
      <trkpt lat="51.152143171057105" lon="6.130942068994045">
        <ele>28.93</ele>
        <time>2019-11-10T13:16:50Z</time>
      </trkpt>
      <trkpt lat="51.151887103915215" lon="6.132138250395656">
        <ele>28.91</ele>
        <time>2019-11-10T13:16:55Z</time>
      </trkpt>
      <trkpt lat="51.15056661888957" lon="6.139322631061077">
        <ele>28.91</ele>
        <time>2019-11-10T13:16:56Z</time>
      </trkpt>
      <trkpt lat="51.150782201439142" lon="6.144371135160327">
        <ele>28.920000000000002</ele>
        <time>2019-11-10T13:16:57Z</time>
      </trkpt>
      <trkpt lat="51.151635982096195" lon="6.148888897150755" />
      <trkpt lat="51.152228834107518" lon="6.153088817372918" />
      <trkpt lat="51.15244441665709" lon="6.154440818354487" />
      <trkpt lat="51.151564065366983" lon="6.154872318729758" />
      <trkpt lat="51.151312524452806" lon="6.155332569032908" />
    </trkseg>
  </trk>

</gpx>